PWSweather.com
Personal Weather Stations
Station Observations
EI4HQ
Cork Harbour, CobhIE

Cork HarbourCobhIE

Lat: 51.85, Lon: -8.29

Elevation: 252

Station Type: Davis Vantage Pro2

http://www.corkharbourweather.ie

High Low Average
Temperature 59.9°F15.5°F 40.1°F4.5°F 50.5°F10.3°F
Dew Point 54.7°F12.6°F 39.0°F3.9°F 47.5°F8.6°F
Winds 12.0 mph SSE19.3 mph SSE Calm Calm 5.2 mph 8.4 mph
Wind Gusts 18.0 mph29.0 mph -- 8.9 mph14.3 mph
Humidity 98% 71% 90%
Pressure 30.30 in1026.10 in 30.20 in1022.70 in -
Precipitation 0.19 in4.80 in - -
Hour Temp Dew Point Humidity Winds Wind Gusts Pressure Precip Precip Rate Daily Precip Total
12:00 AM 46.9°F8.3°C 45.5°F7.5°C 95% 4.0 mph W6.4 kmh W 9.0 mph14.5 kmh 30.26 in1024.7 mb 0.00 in0.0 mm 0.00 in0.0 mm 0.00 in0.0 mm
12:03 AM 46.9°F8.3°C 45.7°F7.6°C 95% 4.0 mph W6.4 kmh W 9.0 mph14.5 kmh 30.26 in1024.7 mb 0.00 in0.0 mm 0.00 in0.0 mm 0.00 in0.0 mm
12:06 AM 47.1°F8.4°C 45.7°F7.6°C 95% 4.0 mph W6.4 kmh W 9.0 mph14.5 kmh 30.26 in1024.7 mb 0.00 in0.0 mm 0.00 in0.0 mm 0.00 in0.0 mm
12:09 AM 47.1°F8.4°C 45.9°F7.7°C 95% 3.0 mph W4.8 kmh W 8.0 mph12.9 kmh 30.26 in1024.7 mb 0.00 in0.0 mm 0.00 in0.0 mm 0.00 in0.0 mm
12:12 AM 47.1°F8.4°C 45.5°F7.5°C 94% 3.0 mph WSW4.8 kmh WSW 8.0 mph12.9 kmh 30.26 in1024.7 mb 0.00 in0.0 mm 0.00 in0.0 mm 0.00 in0.0 mm
12:15 AM 46.9°F8.3°C 45.3°F7.4°C 94% 3.0 mph WSW4.8 kmh WSW 6.0 mph9.7 kmh 30.26 in1024.7 mb 0.00 in0.0 mm 0.00 in0.0 mm 0.00 in0.0 mm
12:18 AM 46.9°F8.3°C 45.3°F7.4°C 94% 3.0 mph WSW4.8 kmh WSW 8.0 mph12.9 kmh 30.26 in1024.7 mb 0.00 in0.0 mm 0.00 in0.0 mm 0.00 in0.0 mm
12:21 AM 46.8°F8.2°C 45.1°F7.3°C 94% 4.0 mph WSW6.4 kmh WSW 8.0 mph12.9 kmh 30.26 in1024.7 mb 0.00 in0.0 mm 0.00 in0.0 mm 0.00 in0.0 mm
12:24 AM 46.9°F8.3°C 45.5°F7.5°C 95% 4.0 mph WSW6.4 kmh WSW 8.0 mph12.9 kmh 30.26 in1024.7 mb 0.00 in0.0 mm 0.00 in0.0 mm 0.00 in0.0 mm
12:27 AM 46.9°F8.3°C 45.5°F7.5°C 95% 4.0 mph W6.4 kmh W 8.0 mph12.9 kmh 30.26 in1024.7 mb 0.00 in0.0 mm 0.00 in0.0 mm 0.00 in0.0 mm
12:30 AM 46.9°F8.3°C 45.5°F7.5°C 95% 4.0 mph WSW6.4 kmh WSW 8.0 mph12.9 kmh 30.26 in1024.7 mb 0.00 in0.0 mm 0.00 in0.0 mm 0.00 in0.0 mm
12:33 AM 46.9°F8.3°C 45.5°F7.5°C 95% 3.0 mph WSW4.8 kmh WSW 8.0 mph12.9 kmh 30.26 in1024.7 mb 0.00 in0.0 mm 0.00 in0.0 mm 0.00 in0.0 mm
12:36 AM 46.8°F8.2°C 45.5°F7.5°C 95% 3.0 mph WSW4.8 kmh WSW 8.0 mph12.9 kmh 30.26 in1024.7 mb 0.00 in0.0 mm 0.00 in0.0 mm 0.00 in0.0 mm
12:39 AM 46.8°F8.2°C 45.5°F7.5°C 95% 4.0 mph WSW6.4 kmh WSW 8.0 mph12.9 kmh 30.26 in1024.7 mb 0.00 in0.0 mm 0.00 in0.0 mm 0.00 in0.0 mm
12:42 AM 46.8°F8.2°C 45.3°F7.4°C 95% 4.0 mph WSW6.4 kmh WSW 9.0 mph14.5 kmh 30.26 in1024.7 mb 0.00 in0.0 mm 0.00 in0.0 mm 0.00 in0.0 mm
12:45 AM 46.8°F8.2°C 45.5°F7.5°C 95% 5.0 mph WSW8.0 kmh WSW 10.0 mph16.1 kmh 30.26 in1024.7 mb 0.00 in0.0 mm 0.00 in0.0 mm 0.00 in0.0 mm
12:48 AM 46.8°F8.2°C 45.5°F7.5°C 95% 5.0 mph WSW8.0 kmh WSW 10.0 mph16.1 kmh 30.26 in1024.7 mb 0.00 in0.0 mm 0.00 in0.0 mm 0.00 in0.0 mm
12:51 AM 46.8°F8.2°C 45.5°F7.5°C 95% 5.0 mph WSW8.0 kmh WSW 10.0 mph16.1 kmh 30.26 in1024.7 mb 0.00 in0.0 mm 0.00 in0.0 mm 0.00 in0.0 mm
12:54 AM 46.8°F8.2°C 45.5°F7.5°C 95% 4.0 mph W6.4 kmh W 10.0 mph16.1 kmh 30.26 in1024.7 mb 0.00 in0.0 mm 0.00 in0.0 mm 0.00 in0.0 mm
12:57 AM 46.8°F8.2°C 45.5°F7.5°C 95% 3.0 mph W4.8 kmh W 9.0 mph14.5 kmh 30.26 in1024.7 mb 0.00 in0.0 mm 0.00 in0.0 mm 0.00 in0.0 mm
01:00 AM 46.6°F8.1°C 45.3°F7.4°C 95% 3.0 mph W4.8 kmh W 7.0 mph11.3 kmh 30.25 in1024.4 mb 0.00 in0.0 mm 0.00 in0.0 mm 0.00 in0.0 mm
01:03 AM 46.4°F8.0°C 44.8°F7.1°C 94% 3.0 mph W4.8 kmh W 7.0 mph11.3 kmh 30.26 in1024.7 mb 0.00 in0.0 mm 0.00 in0.0 mm 0.00 in0.0 mm
01:06 AM 46.2°F7.9°C 44.6°F7.0°C 94% 3.0 mph W4.8 kmh W 7.0 mph11.3 kmh 30.26 in1024.7 mb 0.00 in0.0 mm 0.00 in0.0 mm 0.00 in0.0 mm
01:09 AM 46.0°F7.8°C 44.4°F6.9°C 94% 3.0 mph W4.8 kmh W 6.0 mph9.7 kmh 30.26 in1024.7 mb 0.00 in0.0 mm 0.00 in0.0 mm 0.00 in0.0 mm
01:12 AM 46.0°F7.8°C 44.6°F7.0°C 95% 3.0 mph W4.8 kmh W 9.0 mph14.5 kmh 30.26 in1024.7 mb 0.00 in0.0 mm 0.00 in0.0 mm 0.00 in0.0 mm
01:15 AM 46.0°F7.8°C 44.6°F7.0°C 95% 3.0 mph W4.8 kmh W 9.0 mph14.5 kmh 30.25 in1024.4 mb 0.00 in0.0 mm 0.00 in0.0 mm 0.00 in0.0 mm
01:18 AM 45.9°F7.7°C 44.2°F6.8°C 94% 3.0 mph W4.8 kmh W 9.0 mph14.5 kmh 30.25 in1024.4 mb 0.00 in0.0 mm 0.00 in0.0 mm 0.00 in0.0 mm
01:21 AM 45.7°F7.6°C 44.1°F6.7°C 94% 3.0 mph W4.8 kmh W 7.0 mph11.3 kmh 30.26 in1024.7 mb 0.00 in0.0 mm 0.00 in0.0 mm 0.00 in0.0 mm
01:24 AM 45.3°F7.4°C 43.7°F6.5°C 94% 2.0 mph W3.2 kmh W 7.0 mph11.3 kmh 30.26 in1024.7 mb 0.00 in0.0 mm 0.00 in0.0 mm 0.00 in0.0 mm
01:27 AM 45.1°F7.3°C 43.5°F6.4°C 94% 1.0 mph W1.6 kmh W 4.0 mph6.4 kmh 30.26 in1024.7 mb 0.00 in0.0 mm 0.00 in0.0 mm 0.00 in0.0 mm
01:30 AM 45.0°F7.2°C 43.3°F6.3°C 94% 1.0 mph W1.6 kmh W 3.0 mph4.8 kmh 30.26 in1024.7 mb 0.00 in0.0 mm 0.00 in0.0 mm 0.00 in0.0 mm
01:33 AM 44.6°F7.0°C 43.0°F6.1°C 94% Calm Calm 3.0 mph4.8 kmh 30.26 in1024.7 mb 0.00 in0.0 mm 0.00 in0.0 mm 0.00 in0.0 mm
01:36 AM 44.4°F6.9°C 42.8°F6.0°C 94% Calm Calm 2.0 mph3.2 kmh 30.26 in1024.7 mb 0.00 in0.0 mm 0.00 in0.0 mm 0.00 in0.0 mm
01:39 AM 43.9°F6.6°C 42.1°F5.6°C 93% Calm Calm 2.0 mph3.2 kmh 30.26 in1024.7 mb 0.00 in0.0 mm 0.00 in0.0 mm 0.00 in0.0 mm
01:42 AM 43.5°F6.4°C 41.7°F5.4°C 93% Calm Calm 2.0 mph3.2 kmh 30.26 in1024.7 mb 0.00 in0.0 mm 0.00 in0.0 mm 0.00 in0.0 mm
01:45 AM 43.3°F6.3°C 41.7°F5.4°C 94% 1.0 mph W1.6 kmh W 3.0 mph4.8 kmh 30.26 in1024.7 mb 0.00 in0.0 mm 0.00 in0.0 mm 0.00 in0.0 mm
01:48 AM 43.2°F6.2°C 41.5°F5.3°C 94% 1.0 mph WNW1.6 kmh WNW 3.0 mph4.8 kmh 30.26 in1024.7 mb 0.00 in0.0 mm 0.00 in0.0 mm 0.00 in0.0 mm
01:51 AM 43.3°F6.3°C 41.9°F5.5°C 95% 1.0 mph WNW1.6 kmh WNW 4.0 mph6.4 kmh 30.26 in1024.7 mb 0.00 in0.0 mm 0.00 in0.0 mm 0.00 in0.0 mm
01:54 AM 43.3°F6.3°C 42.1°F5.6°C 95% 1.0 mph NW1.6 kmh NW 4.0 mph6.4 kmh 30.26 in1024.7 mb 0.00 in0.0 mm 0.00 in0.0 mm 0.00 in0.0 mm
01:57 AM 43.5°F6.4°C 42.3°F5.7°C 95% 1.0 mph NW1.6 kmh NW 4.0 mph6.4 kmh 30.26 in1024.7 mb 0.00 in0.0 mm 0.00 in0.0 mm 0.00 in0.0 mm
02:00 AM 44.1°F6.7°C 43.0°F6.1°C 96% 1.0 mph WNW1.6 kmh WNW 4.0 mph6.4 kmh 30.26 in1024.7 mb 0.00 in0.0 mm 0.00 in0.0 mm 0.00 in0.0 mm
02:03 AM 44.2°F6.8°C 43.2°F6.2°C 96% 1.0 mph WNW1.6 kmh WNW 4.0 mph6.4 kmh 30.26 in1024.7 mb 0.00 in0.0 mm 0.00 in0.0 mm 0.00 in0.0 mm
02:06 AM 44.4°F6.9°C 43.5°F6.4°C 96% 1.0 mph WNW1.6 kmh WNW 4.0 mph6.4 kmh 30.26 in1024.7 mb 0.00 in0.0 mm 0.00 in0.0 mm 0.00 in0.0 mm
02:09 AM 44.6°F7.0°C 43.5°F6.4°C 96% 1.0 mph NW1.6 kmh NW 4.0 mph6.4 kmh 30.26 in1024.7 mb 0.00 in0.0 mm 0.00 in0.0 mm 0.00 in0.0 mm
02:12 AM 44.8°F7.1°C 43.7°F6.5°C 96% 1.0 mph NW1.6 kmh NW 4.0 mph6.4 kmh 30.26 in1024.7 mb 0.00 in0.0 mm 0.00 in0.0 mm 0.00 in0.0 mm
02:15 AM 45.0°F7.2°C 43.9°F6.6°C 96% 1.0 mph NW1.6 kmh NW 4.0 mph6.4 kmh 30.26 in1024.7 mb 0.00 in0.0 mm 0.00 in0.0 mm 0.00 in0.0 mm
02:18 AM 45.0°F7.2°C 43.9°F6.6°C 96% 1.0 mph NW1.6 kmh NW 4.0 mph6.4 kmh 30.26 in1024.7 mb 0.00 in0.0 mm 0.00 in0.0 mm 0.00 in0.0 mm
02:21 AM 45.0°F7.2°C 43.9°F6.6°C 96% 1.0 mph NW1.6 kmh NW 4.0 mph6.4 kmh 30.26 in1024.7 mb 0.00 in0.0 mm 0.00 in0.0 mm 0.00 in0.0 mm
02:24 AM 45.0°F7.2°C 43.9°F6.6°C 96% 1.0 mph NW1.6 kmh NW 4.0 mph6.4 kmh 30.26 in1024.7 mb 0.00 in0.0 mm 0.00 in0.0 mm 0.00 in0.0 mm
02:27 AM 45.1°F7.3°C 44.1°F6.7°C 96% 1.0 mph NNW1.6 kmh NNW 2.0 mph3.2 kmh 30.26 in1024.7 mb 0.00 in0.0 mm 0.00 in0.0 mm 0.00 in0.0 mm
02:30 AM 45.1°F7.3°C 44.1°F6.7°C 96% 1.0 mph NNW1.6 kmh NNW 3.0 mph4.8 kmh 30.26 in1024.7 mb 0.00 in0.0 mm 0.00 in0.0 mm 0.00 in0.0 mm
02:33 AM 45.1°F7.3°C 44.1°F6.7°C 96% 1.0 mph NW1.6 kmh NW 4.0 mph6.4 kmh 30.26 in1024.7 mb 0.00 in0.0 mm 0.00 in0.0 mm 0.00 in0.0 mm
02:36 AM 45.3°F7.4°C 44.2°F6.8°C 96% 1.0 mph NW1.6 kmh NW 4.0 mph6.4 kmh 30.26 in1024.7 mb 0.00 in0.0 mm 0.00 in0.0 mm 0.00 in0.0 mm
02:39 AM 45.3°F7.4°C 44.2°F6.8°C 96% 1.0 mph WNW1.6 kmh WNW 4.0 mph6.4 kmh 30.26 in1024.7 mb 0.00 in0.0 mm 0.00 in0.0 mm 0.00 in0.0 mm
02:42 AM 45.3°F7.4°C 44.2°F6.8°C 96% 2.0 mph NW3.2 kmh NW 4.0 mph6.4 kmh 30.26 in1024.7 mb 0.00 in0.0 mm 0.00 in0.0 mm 0.00 in0.0 mm
02:45 AM 45.3°F7.4°C 44.2°F6.8°C 96% 2.0 mph NW3.2 kmh NW 4.0 mph6.4 kmh 30.26 in1024.7 mb 0.00 in0.0 mm 0.00 in0.0 mm 0.00 in0.0 mm
02:48 AM 45.3°F7.4°C 44.2°F6.8°C 96% 2.0 mph NW3.2 kmh NW 4.0 mph6.4 kmh 30.26 in1024.7 mb 0.00 in0.0 mm 0.00 in0.0 mm 0.00 in0.0 mm
02:51 AM 45.1°F7.3°C 44.1°F6.7°C 96% 2.0 mph NW3.2 kmh NW 4.0 mph6.4 kmh 30.26 in1024.7 mb 0.00 in0.0 mm 0.00 in0.0 mm 0.00 in0.0 mm
02:54 AM 45.1°F7.3°C 44.1°F6.7°C 96% 1.0 mph NW1.6 kmh NW 4.0 mph6.4 kmh 30.26 in1024.7 mb 0.00 in0.0 mm 0.00 in0.0 mm 0.00 in0.0 mm
02:57 AM 45.1°F7.3°C 44.1°F6.7°C 96% 1.0 mph NW1.6 kmh NW 4.0 mph6.4 kmh 30.26 in1024.7 mb 0.00 in0.0 mm 0.00 in0.0 mm 0.00 in0.0 mm
03:00 AM 45.0°F7.2°C 43.5°F6.4°C 95% 1.0 mph WNW1.6 kmh WNW 4.0 mph6.4 kmh 30.26 in1024.7 mb 0.00 in0.0 mm 0.00 in0.0 mm 0.00 in0.0 mm
03:03 AM 44.8°F7.1°C 43.5°F6.4°C 95% 1.0 mph NW1.6 kmh NW 3.0 mph4.8 kmh 30.26 in1024.7 mb 0.00 in0.0 mm 0.00 in0.0 mm 0.00 in0.0 mm
03:06 AM 44.6°F7.0°C 43.3°F6.3°C 95% 1.0 mph NW1.6 kmh NW 3.0 mph4.8 kmh 30.26 in1024.7 mb 0.00 in0.0 mm 0.00 in0.0 mm 0.00 in0.0 mm
03:09 AM 44.4°F6.9°C 43.0°F6.1°C 95% 2.0 mph NW3.2 kmh NW 3.0 mph4.8 kmh 30.26 in1024.7 mb 0.00 in0.0 mm 0.00 in0.0 mm 0.00 in0.0 mm
03:12 AM 44.2°F6.8°C 42.8°F6.0°C 95% 1.0 mph NW1.6 kmh NW 3.0 mph4.8 kmh 30.26 in1024.7 mb 0.00 in0.0 mm 0.00 in0.0 mm 0.00 in0.0 mm
03:15 AM 44.2°F6.8°C 43.2°F6.2°C 96% 1.0 mph NW1.6 kmh NW 3.0 mph4.8 kmh 30.26 in1024.7 mb 0.00 in0.0 mm 0.00 in0.0 mm 0.00 in0.0 mm
03:18 AM 44.1°F6.7°C 43.0°F6.1°C 96% 1.0 mph NW1.6 kmh NW 3.0 mph4.8 kmh 30.26 in1024.7 mb 0.00 in0.0 mm 0.00 in0.0 mm 0.00 in0.0 mm
03:21 AM 44.1°F6.7°C 43.0°F6.1°C 96% 1.0 mph NW1.6 kmh NW 3.0 mph4.8 kmh 30.26 in1024.7 mb 0.00 in0.0 mm 0.00 in0.0 mm 0.00 in0.0 mm
03:24 AM 43.9°F6.6°C 42.6°F5.9°C 95% 1.0 mph NW1.6 kmh NW 3.0 mph4.8 kmh 30.26 in1024.7 mb 0.00 in0.0 mm 0.00 in0.0 mm 0.00 in0.0 mm
03:27 AM 43.9°F6.6°C 42.4°F5.8°C 95% 1.0 mph NW1.6 kmh NW 4.0 mph6.4 kmh 30.26 in1024.7 mb 0.00 in0.0 mm 0.00 in0.0 mm 0.00 in0.0 mm
03:30 AM 43.5°F6.4°C 42.3°F5.7°C 95% 2.0 mph NW3.2 kmh NW 4.0 mph6.4 kmh 30.26 in1024.7 mb 0.00 in0.0 mm 0.00 in0.0 mm 0.00 in0.0 mm
03:33 AM 43.3°F6.3°C 42.1°F5.6°C 95% 1.0 mph NW1.6 kmh NW 4.0 mph6.4 kmh 30.26 in1024.7 mb 0.00 in0.0 mm 0.00 in0.0 mm 0.00 in0.0 mm
03:36 AM 43.2°F6.2°C 41.9°F5.5°C 95% 1.0 mph NW1.6 kmh NW 3.0 mph4.8 kmh 30.26 in1024.7 mb 0.00 in0.0 mm 0.00 in0.0 mm 0.00 in0.0 mm
03:39 AM 43.0°F6.1°C 41.5°F5.3°C 95% 1.0 mph NW1.6 kmh NW 3.0 mph4.8 kmh 30.26 in1024.7 mb 0.00 in0.0 mm 0.00 in0.0 mm 0.00 in0.0 mm
03:42 AM 42.6°F5.9°C 41.4°F5.2°C 95% 1.0 mph NW1.6 kmh NW 3.0 mph4.8 kmh 30.26 in1024.7 mb 0.00 in0.0 mm 0.00 in0.0 mm 0.00 in0.0 mm
03:45 AM 42.4°F5.8°C 41.0°F5.0°C 95% 1.0 mph NW1.6 kmh NW 3.0 mph4.8 kmh 30.26 in1024.7 mb 0.00 in0.0 mm 0.00 in0.0 mm 0.00 in0.0 mm
03:48 AM 42.3°F5.7°C 41.0°F5.0°C 95% 1.0 mph NW1.6 kmh NW 3.0 mph4.8 kmh 30.26 in1024.7 mb 0.00 in0.0 mm 0.00 in0.0 mm 0.00 in0.0 mm
03:51 AM 42.1°F5.6°C 40.8°F4.9°C 95% 1.0 mph NW1.6 kmh NW 3.0 mph4.8 kmh 30.26 in1024.7 mb 0.00 in0.0 mm 0.00 in0.0 mm 0.00 in0.0 mm
03:54 AM 41.7°F5.4°C 40.5°F4.7°C 95% 2.0 mph NW3.2 kmh NW 3.0 mph4.8 kmh 30.26 in1024.7 mb 0.00 in0.0 mm 0.00 in0.0 mm 0.00 in0.0 mm
03:57 AM 41.5°F5.3°C 40.1°F4.5°C 95% 2.0 mph NW3.2 kmh NW 3.0 mph4.8 kmh 30.26 in1024.7 mb 0.00 in0.0 mm 0.00 in0.0 mm 0.00 in0.0 mm
04:00 AM 41.4°F5.2°C 39.9°F4.4°C 95% 2.0 mph NW3.2 kmh NW 3.0 mph4.8 kmh 30.26 in1024.7 mb 0.00 in0.0 mm 0.00 in0.0 mm 0.00 in0.0 mm
04:03 AM 41.2°F5.1°C 39.9°F4.4°C 95% 2.0 mph NW3.2 kmh NW 3.0 mph4.8 kmh 30.26 in1024.7 mb 0.00 in0.0 mm 0.00 in0.0 mm 0.00 in0.0 mm
04:06 AM 41.2°F5.1°C 39.9°F4.4°C 95% 2.0 mph NW3.2 kmh NW 5.0 mph8.0 kmh 30.26 in1024.7 mb 0.00 in0.0 mm 0.00 in0.0 mm 0.00 in0.0 mm
04:09 AM 41.4°F5.2°C 40.3°F4.6°C 96% 2.0 mph NW3.2 kmh NW 5.0 mph8.0 kmh 30.25 in1024.4 mb 0.00 in0.0 mm 0.00 in0.0 mm 0.00 in0.0 mm
04:12 AM 41.7°F5.4°C 40.6°F4.8°C 96% 2.0 mph NW3.2 kmh NW 5.0 mph8.0 kmh 30.25 in1024.4 mb 0.00 in0.0 mm 0.00 in0.0 mm 0.00 in0.0 mm
04:15 AM 41.7°F5.4°C 40.8°F4.9°C 96% 2.0 mph NW3.2 kmh NW 4.0 mph6.4 kmh 30.25 in1024.4 mb 0.00 in0.0 mm 0.00 in0.0 mm 0.00 in0.0 mm
04:18 AM 41.7°F5.4°C 40.8°F4.9°C 96% 2.0 mph NW3.2 kmh NW 5.0 mph8.0 kmh 30.25 in1024.4 mb 0.00 in0.0 mm 0.00 in0.0 mm 0.00 in0.0 mm
04:21 AM 41.9°F5.5°C 40.8°F4.9°C 96% 2.0 mph NW3.2 kmh NW 5.0 mph8.0 kmh 30.25 in1024.4 mb 0.00 in0.0 mm 0.00 in0.0 mm 0.00 in0.0 mm
04:24 AM 41.9°F5.5°C 40.8°F4.9°C 96% 2.0 mph NNW3.2 kmh NNW 5.0 mph8.0 kmh 30.25 in1024.4 mb 0.00 in0.0 mm 0.00 in0.0 mm 0.00 in0.0 mm
04:27 AM 41.7°F5.4°C 40.8°F4.9°C 96% 2.0 mph NNW3.2 kmh NNW 5.0 mph8.0 kmh 30.25 in1024.4 mb 0.00 in0.0 mm 0.00 in0.0 mm 0.00 in0.0 mm
04:30 AM 41.9°F5.5°C 40.8°F4.9°C 96% 2.0 mph NNW3.2 kmh NNW 5.0 mph8.0 kmh 30.25 in1024.4 mb 0.00 in0.0 mm 0.00 in0.0 mm 0.00 in0.0 mm
04:33 AM 42.1°F5.6°C 41.0°F5.0°C 96% 2.0 mph NW3.2 kmh NW 4.0 mph6.4 kmh 30.25 in1024.4 mb 0.00 in0.0 mm 0.00 in0.0 mm 0.00 in0.0 mm
04:36 AM 42.1°F5.6°C 41.0°F5.0°C 96% 2.0 mph NW3.2 kmh NW 4.0 mph6.4 kmh 30.25 in1024.4 mb 0.01 in0.3 mm 0.20 in5.1 mm 0.01 in0.3 mm
04:39 AM 42.1°F5.6°C 41.0°F5.0°C 96% 2.0 mph NNW3.2 kmh NNW 5.0 mph8.0 kmh 30.25 in1024.4 mb 0.01 in0.3 mm 0.00 in0.0 mm 0.01 in0.3 mm
04:42 AM 42.1°F5.6°C 41.0°F5.0°C 96% 2.0 mph NW3.2 kmh NW 5.0 mph8.0 kmh 30.25 in1024.4 mb 0.01 in0.3 mm 0.00 in0.0 mm 0.01 in0.3 mm
04:45 AM 42.3°F5.7°C 41.2°F5.1°C 96% 2.0 mph NW3.2 kmh NW 5.0 mph8.0 kmh 30.25 in1024.4 mb 0.01 in0.3 mm 0.00 in0.0 mm 0.01 in0.3 mm
04:48 AM 42.3°F5.7°C 41.2°F5.1°C 96% 2.0 mph NW3.2 kmh NW 5.0 mph8.0 kmh 30.25 in1024.4 mb 0.01 in0.3 mm 0.00 in0.0 mm 0.01 in0.3 mm
04:51 AM 42.3°F5.7°C 41.2°F5.1°C 96% 2.0 mph NW3.2 kmh NW 4.0 mph6.4 kmh 30.26 in1024.7 mb 0.01 in0.3 mm 0.00 in0.0 mm 0.01 in0.3 mm
04:54 AM 42.3°F5.7°C 41.2°F5.1°C 96% 2.0 mph NW3.2 kmh NW 4.0 mph6.4 kmh 30.25 in1024.4 mb 0.01 in0.3 mm 0.00 in0.0 mm 0.01 in0.3 mm
04:57 AM 42.4°F5.8°C 41.4°F5.2°C 96% 2.0 mph NW3.2 kmh NW 4.0 mph6.4 kmh 30.26 in1024.7 mb 0.01 in0.3 mm 0.00 in0.0 mm 0.01 in0.3 mm
05:00 AM 42.4°F5.8°C 41.4°F5.2°C 96% 2.0 mph NW3.2 kmh NW 4.0 mph6.4 kmh 30.26 in1024.7 mb 0.01 in0.3 mm 0.00 in0.0 mm 0.01 in0.3 mm
05:03 AM 42.6°F5.9°C 41.5°F5.3°C 96% 1.0 mph WNW1.6 kmh WNW 3.0 mph4.8 kmh 30.26 in1024.7 mb 0.01 in0.3 mm 0.00 in0.0 mm 0.01 in0.3 mm
05:06 AM 42.4°F5.8°C 41.4°F5.2°C 96% 1.0 mph WNW1.6 kmh WNW 2.0 mph3.2 kmh 30.26 in1024.7 mb 0.01 in0.3 mm 0.00 in0.0 mm 0.01 in0.3 mm
05:09 AM 42.4°F5.8°C 41.4°F5.2°C 96% 1.0 mph W1.6 kmh W 2.0 mph3.2 kmh 30.26 in1024.7 mb 0.01 in0.3 mm 0.00 in0.0 mm 0.01 in0.3 mm
05:12 AM 42.3°F5.7°C 41.2°F5.1°C 96% 1.0 mph W1.6 kmh W 4.0 mph6.4 kmh 30.26 in1024.7 mb 0.01 in0.3 mm 0.00 in0.0 mm 0.01 in0.3 mm
05:15 AM 42.3°F5.7°C 41.2°F5.1°C 96% 1.0 mph W1.6 kmh W 4.0 mph6.4 kmh 30.26 in1024.7 mb 0.01 in0.3 mm 0.00 in0.0 mm 0.01 in0.3 mm
05:18 AM 42.1°F5.6°C 41.0°F5.0°C 96% 1.0 mph W1.6 kmh W 4.0 mph6.4 kmh 30.26 in1024.7 mb 0.01 in0.3 mm 0.00 in0.0 mm 0.01 in0.3 mm
05:21 AM 42.3°F5.7°C 41.2°F5.1°C 96% 1.0 mph W1.6 kmh W 2.0 mph3.2 kmh 30.26 in1024.7 mb 0.01 in0.3 mm 0.00 in0.0 mm 0.01 in0.3 mm
05:24 AM 42.1°F5.6°C 41.0°F5.0°C 96% 1.0 mph W1.6 kmh W 3.0 mph4.8 kmh 30.26 in1024.7 mb 0.01 in0.3 mm 0.00 in0.0 mm 0.01 in0.3 mm
05:27 AM 41.7°F5.4°C 40.8°F4.9°C 96% 1.0 mph W1.6 kmh W 4.0 mph6.4 kmh 30.26 in1024.7 mb 0.01 in0.3 mm 0.00 in0.0 mm 0.01 in0.3 mm
05:30 AM 41.5°F5.3°C 40.5°F4.7°C 96% 1.0 mph W1.6 kmh W 4.0 mph6.4 kmh 30.26 in1024.7 mb 0.01 in0.3 mm 0.00 in0.0 mm 0.01 in0.3 mm
05:33 AM 41.2°F5.1°C 39.9°F4.4°C 95% 1.0 mph W1.6 kmh W 4.0 mph6.4 kmh 30.26 in1024.7 mb 0.00 in0.0 mm 0.00 in0.0 mm 0.01 in0.3 mm
05:36 AM 41.0°F5.0°C 39.7°F4.3°C 95% Calm Calm 3.0 mph4.8 kmh 30.26 in1024.7 mb 0.00 in0.0 mm 0.00 in0.0 mm 0.01 in0.3 mm
05:39 AM 40.8°F4.9°C 39.9°F4.4°C 96% Calm Calm 1.0 mph1.6 kmh 30.26 in1024.7 mb 0.00 in0.0 mm 0.00 in0.0 mm 0.01 in0.3 mm
05:42 AM 40.8°F4.9°C 39.7°F4.3°C 96% Calm Calm 2.0 mph3.2 kmh 30.26 in1024.7 mb 0.00 in0.0 mm 0.00 in0.0 mm 0.01 in0.3 mm
05:45 AM 40.6°F4.8°C 39.6°F4.2°C 96% 1.0 mph WSW1.6 kmh WSW 2.0 mph3.2 kmh 30.26 in1024.7 mb 0.00 in0.0 mm 0.00 in0.0 mm 0.01 in0.3 mm
05:48 AM 40.5°F4.7°C 39.4°F4.1°C 96% 1.0 mph WSW1.6 kmh WSW 2.0 mph3.2 kmh 30.26 in1024.7 mb 0.00 in0.0 mm 0.00 in0.0 mm 0.01 in0.3 mm
05:51 AM 40.3°F4.6°C 39.0°F3.9°C 95% Calm Calm 2.0 mph3.2 kmh 30.26 in1024.7 mb 0.00 in0.0 mm 0.00 in0.0 mm 0.01 in0.3 mm
05:54 AM 40.3°F4.6°C 39.2°F4.0°C 96% Calm Calm 1.0 mph1.6 kmh 30.26 in1024.7 mb 0.00 in0.0 mm 0.00 in0.0 mm 0.01 in0.3 mm
05:57 AM 40.1°F4.5°C 39.0°F3.9°C 96% Calm Calm -- 30.26 in1024.7 mb 0.00 in0.0 mm 0.00 in0.0 mm 0.01 in0.3 mm
06:00 AM 40.3°F4.6°C 39.2°F4.0°C 96% Calm Calm -- 30.26 in1024.7 mb 0.00 in0.0 mm 0.00 in0.0 mm 0.01 in0.3 mm
06:03 AM 40.3°F4.6°C 39.2°F4.0°C 96% Calm Calm -- 30.26 in1024.7 mb 0.00 in0.0 mm 0.00 in0.0 mm 0.01 in0.3 mm
06:06 AM 40.5°F4.7°C 39.6°F4.2°C 97% Calm Calm -- 30.26 in1024.7 mb 0.00 in0.0 mm 0.00 in0.0 mm 0.01 in0.3 mm
06:09 AM 40.8°F4.9°C 40.1°F4.5°C 97% Calm Calm -- 30.26 in1024.7 mb 0.00 in0.0 mm 0.00 in0.0 mm 0.01 in0.3 mm
06:12 AM 41.0°F5.0°C 40.3°F4.6°C 97% Calm Calm 2.0 mph3.2 kmh 30.27 in1025.1 mb 0.00 in0.0 mm 0.00 in0.0 mm 0.01 in0.3 mm
06:15 AM 41.4°F5.2°C 40.5°F4.7°C 97% Calm Calm 2.0 mph3.2 kmh 30.27 in1025.1 mb 0.00 in0.0 mm 0.00 in0.0 mm 0.01 in0.3 mm
06:18 AM 41.4°F5.2°C 40.5°F4.7°C 97% 1.0 mph SW1.6 kmh SW 3.0 mph4.8 kmh 30.27 in1025.1 mb 0.00 in0.0 mm 0.00 in0.0 mm 0.01 in0.3 mm
06:21 AM 41.4°F5.2°C 40.6°F4.8°C 97% 1.0 mph SW1.6 kmh SW 3.0 mph4.8 kmh 30.27 in1025.1 mb 0.00 in0.0 mm 0.00 in0.0 mm 0.01 in0.3 mm
06:24 AM 41.7°F5.4°C 41.0°F5.0°C 97% 1.0 mph SW1.6 kmh SW 3.0 mph4.8 kmh 30.27 in1025.1 mb 0.00 in0.0 mm 0.00 in0.0 mm 0.01 in0.3 mm
06:27 AM 42.1°F5.6°C 41.4°F5.2°C 97% 1.0 mph SW1.6 kmh SW 2.0 mph3.2 kmh 30.27 in1025.1 mb 0.00 in0.0 mm 0.00 in0.0 mm 0.01 in0.3 mm
06:30 AM 42.6°F5.9°C 41.7°F5.4°C 97% 1.0 mph SW1.6 kmh SW 2.0 mph3.2 kmh 30.27 in1025.1 mb 0.00 in0.0 mm 0.00 in0.0 mm 0.01 in0.3 mm
06:33 AM 42.8°F6.0°C 42.3°F5.7°C 98% 1.0 mph SW1.6 kmh SW 2.0 mph3.2 kmh 30.27 in1025.1 mb 0.00 in0.0 mm 0.00 in0.0 mm 0.01 in0.3 mm
06:36 AM 43.2°F6.2°C 42.3°F5.7°C 97% 1.0 mph S1.6 kmh S 3.0 mph4.8 kmh 30.27 in1025.1 mb 0.00 in0.0 mm 0.00 in0.0 mm 0.01 in0.3 mm
06:39 AM 43.3°F6.3°C 42.4°F5.8°C 97% 1.0 mph SSE1.6 kmh SSE 3.0 mph4.8 kmh 30.27 in1025.1 mb 0.00 in0.0 mm 0.00 in0.0 mm 0.01 in0.3 mm
06:42 AM 43.3°F6.3°C 42.6°F5.9°C 97% 1.0 mph SE1.6 kmh SE 3.0 mph4.8 kmh 30.27 in1025.1 mb 0.00 in0.0 mm 0.00 in0.0 mm 0.01 in0.3 mm
06:45 AM 43.5°F6.4°C 42.8°F6.0°C 97% 1.0 mph SE1.6 kmh SE 3.0 mph4.8 kmh 30.27 in1025.1 mb 0.00 in0.0 mm 0.00 in0.0 mm 0.01 in0.3 mm
06:48 AM 43.7°F6.5°C 43.0°F6.1°C 97% 2.0 mph SE3.2 kmh SE 3.0 mph4.8 kmh 30.27 in1025.1 mb 0.00 in0.0 mm 0.00 in0.0 mm 0.01 in0.3 mm
06:51 AM 43.9°F6.6°C 43.2°F6.2°C 97% 2.0 mph SE3.2 kmh SE 3.0 mph4.8 kmh 30.27 in1025.1 mb 0.00 in0.0 mm 0.00 in0.0 mm 0.01 in0.3 mm
06:54 AM 44.1°F6.7°C 43.3°F6.3°C 97% 2.0 mph SE3.2 kmh SE 4.0 mph6.4 kmh 30.27 in1025.1 mb 0.00 in0.0 mm 0.00 in0.0 mm 0.01 in0.3 mm
06:57 AM 44.2°F6.8°C 43.3°F6.3°C 97% 2.0 mph SE3.2 kmh SE 4.0 mph6.4 kmh 30.27 in1025.1 mb 0.00 in0.0 mm 0.00 in0.0 mm 0.01 in0.3 mm
07:00 AM 44.2°F6.8°C 43.3°F6.3°C 97% 2.0 mph SE3.2 kmh SE 4.0 mph6.4 kmh 30.27 in1025.1 mb 0.00 in0.0 mm 0.00 in0.0 mm 0.01 in0.3 mm
07:03 AM 44.2°F6.8°C 43.5°F6.4°C 97% 2.0 mph SE3.2 kmh SE 3.0 mph4.8 kmh 30.27 in1025.1 mb 0.00 in0.0 mm 0.00 in0.0 mm 0.01 in0.3 mm
07:06 AM 44.4°F6.9°C 43.5°F6.4°C 97% 2.0 mph SE3.2 kmh SE 3.0 mph4.8 kmh 30.28 in1025.4 mb 0.00 in0.0 mm 0.00 in0.0 mm 0.01 in0.3 mm
07:09 AM 44.6°F7.0°C 43.9°F6.6°C 97% 2.0 mph SSE3.2 kmh SSE 5.0 mph8.0 kmh 30.28 in1025.4 mb 0.00 in0.0 mm 0.00 in0.0 mm 0.01 in0.3 mm
07:12 AM 44.8°F7.1°C 43.9°F6.6°C 97% 3.0 mph S4.8 kmh S 5.0 mph8.0 kmh 30.28 in1025.4 mb 0.00 in0.0 mm 0.00 in0.0 mm 0.01 in0.3 mm
07:15 AM 45.0°F7.2°C 44.1°F6.7°C 97% 3.0 mph S4.8 kmh S 5.0 mph8.0 kmh 30.28 in1025.4 mb 0.00 in0.0 mm 0.00 in0.0 mm 0.01 in0.3 mm
07:18 AM 45.1°F7.3°C 44.2°F6.8°C 97% 3.0 mph S4.8 kmh S 5.0 mph8.0 kmh 30.28 in1025.4 mb 0.00 in0.0 mm 0.00 in0.0 mm 0.01 in0.3 mm
07:21 AM 45.3°F7.4°C 44.6°F7.0°C 97% 3.0 mph S4.8 kmh S 5.0 mph8.0 kmh 30.28 in1025.4 mb 0.00 in0.0 mm 0.00 in0.0 mm 0.01 in0.3 mm
07:24 AM 45.5°F7.5°C 45.0°F7.2°C 98% 2.0 mph S3.2 kmh S 5.0 mph8.0 kmh 30.27 in1025.1 mb 0.00 in0.0 mm 0.00 in0.0 mm 0.01 in0.3 mm
07:27 AM 45.7°F7.6°C 44.8°F7.1°C 97% 2.0 mph S3.2 kmh S 5.0 mph8.0 kmh 30.28 in1025.4 mb 0.00 in0.0 mm 0.00 in0.0 mm 0.01 in0.3 mm
07:30 AM 45.7°F7.6°C 44.8°F7.1°C 97% 2.0 mph S3.2 kmh S 5.0 mph8.0 kmh 30.28 in1025.4 mb 0.00 in0.0 mm 0.00 in0.0 mm 0.01 in0.3 mm
07:33 AM 45.9°F7.7°C 45.0°F7.2°C 97% 1.0 mph SW1.6 kmh SW 3.0 mph4.8 kmh 30.28 in1025.4 mb 0.00 in0.0 mm 0.00 in0.0 mm 0.01 in0.3 mm
07:36 AM 45.9°F7.7°C 45.1°F7.3°C 97% 1.0 mph WSW1.6 kmh WSW 3.0 mph4.8 kmh 30.28 in1025.4 mb 0.00 in0.0 mm 0.00 in0.0 mm 0.01 in0.3 mm
07:39 AM 46.2°F7.9°C 45.3°F7.4°C 97% 1.0 mph W1.6 kmh W 3.0 mph4.8 kmh 30.28 in1025.4 mb 0.00 in0.0 mm 0.00 in0.0 mm 0.01 in0.3 mm
07:42 AM 46.6°F8.1°C 45.7°F7.6°C 97% 1.0 mph W1.6 kmh W 3.0 mph4.8 kmh 30.28 in1025.4 mb 0.00 in0.0 mm 0.00 in0.0 mm 0.01 in0.3 mm
07:45 AM 46.9°F8.3°C 46.4°F8.0°C 98% 1.0 mph WSW1.6 kmh WSW 3.0 mph4.8 kmh 30.28 in1025.4 mb 0.00 in0.0 mm 0.00 in0.0 mm 0.01 in0.3 mm
07:48 AM 47.3°F8.5°C 46.8°F8.2°C 98% 2.0 mph SW3.2 kmh SW 5.0 mph8.0 kmh 30.28 in1025.4 mb 0.00 in0.0 mm 0.00 in0.0 mm 0.01 in0.3 mm
07:51 AM 47.7°F8.7°C 47.1°F8.4°C 98% 2.0 mph SSW3.2 kmh SSW 5.0 mph8.0 kmh 30.28 in1025.4 mb 0.00 in0.0 mm 0.00 in0.0 mm 0.01 in0.3 mm
07:54 AM 47.8°F8.8°C 47.3°F8.5°C 98% 3.0 mph S4.8 kmh S 5.0 mph8.0 kmh 30.29 in1025.7 mb 0.00 in0.0 mm 0.00 in0.0 mm 0.01 in0.3 mm
07:57 AM 47.8°F8.8°C 46.9°F8.3°C 97% 3.0 mph S4.8 kmh S 5.0 mph8.0 kmh 30.29 in1025.7 mb 0.00 in0.0 mm 0.00 in0.0 mm 0.01 in0.3 mm
08:00 AM 47.8°F8.8°C 46.9°F8.3°C 97% 2.0 mph S3.2 kmh S 5.0 mph8.0 kmh 30.29 in1025.7 mb 0.00 in0.0 mm 0.00 in0.0 mm 0.01 in0.3 mm
08:03 AM 47.8°F8.8°C 46.9°F8.3°C 97% 2.0 mph S3.2 kmh S 5.0 mph8.0 kmh 30.29 in1025.7 mb 0.00 in0.0 mm 0.00 in0.0 mm 0.01 in0.3 mm
08:06 AM 47.8°F8.8°C 47.1°F8.4°C 97% 2.0 mph S3.2 kmh S 3.0 mph4.8 kmh 30.29 in1025.7 mb 0.00 in0.0 mm 0.00 in0.0 mm 0.01 in0.3 mm
08:09 AM 47.8°F8.8°C 47.1°F8.4°C 97% 2.0 mph S3.2 kmh S 4.0 mph6.4 kmh 30.29 in1025.7 mb 0.00 in0.0 mm 0.00 in0.0 mm 0.01 in0.3 mm
08:12 AM 48.0°F8.9°C 47.1°F8.4°C 97% 2.0 mph S3.2 kmh S 4.0 mph6.4 kmh 30.29 in1025.7 mb 0.00 in0.0 mm 0.00 in0.0 mm 0.01 in0.3 mm
08:15 AM 48.0°F8.9°C 47.1°F8.4°C 97% 2.0 mph S3.2 kmh S 4.0 mph6.4 kmh 30.29 in1025.7 mb 0.00 in0.0 mm 0.00 in0.0 mm 0.01 in0.3 mm
08:18 AM 47.8°F8.8°C 47.1°F8.4°C 97% 3.0 mph S4.8 kmh S 6.0 mph9.7 kmh 30.29 in1025.7 mb 0.00 in0.0 mm 0.00 in0.0 mm 0.01 in0.3 mm
08:21 AM 47.8°F8.8°C 46.9°F8.3°C 97% 3.0 mph S4.8 kmh S 6.0 mph9.7 kmh 30.29 in1025.7 mb 0.00 in0.0 mm 0.00 in0.0 mm 0.01 in0.3 mm
08:24 AM 47.8°F8.8°C 46.9°F8.3°C 97% 3.0 mph S4.8 kmh S 6.0 mph9.7 kmh 30.29 in1025.7 mb 0.00 in0.0 mm 0.00 in0.0 mm 0.01 in0.3 mm
08:27 AM 47.8°F8.8°C 46.9°F8.3°C 97% 3.0 mph S4.8 kmh S 5.0 mph8.0 kmh 30.29 in1025.7 mb 0.00 in0.0 mm 0.00 in0.0 mm 0.01 in0.3 mm
08:30 AM 47.8°F8.8°C 46.9°F8.3°C 97% 3.0 mph S4.8 kmh S 5.0 mph8.0 kmh 30.29 in1025.7 mb 0.00 in0.0 mm 0.00 in0.0 mm 0.01 in0.3 mm
08:33 AM 47.8°F8.8°C 47.1°F8.4°C 97% 3.0 mph S4.8 kmh S 5.0 mph8.0 kmh 30.29 in1025.7 mb 0.00 in0.0 mm 0.00 in0.0 mm 0.01 in0.3 mm
08:36 AM 48.0°F8.9°C 47.1°F8.4°C 97% 3.0 mph S4.8 kmh S 5.0 mph8.0 kmh 30.29 in1025.7 mb 0.00 in0.0 mm 0.00 in0.0 mm 0.01 in0.3 mm
08:39 AM 48.2°F9.0°C 47.3°F8.5°C 97% 3.0 mph S4.8 kmh S 5.0 mph8.0 kmh 30.29 in1025.7 mb 0.00 in0.0 mm 0.00 in0.0 mm 0.01 in0.3 mm
08:42 AM 48.4°F9.1°C 47.7°F8.7°C 97% 3.0 mph S4.8 kmh S 5.0 mph8.0 kmh 30.29 in1025.7 mb 0.00 in0.0 mm 0.00 in0.0 mm 0.01 in0.3 mm
08:45 AM 48.6°F9.2°C 47.8°F8.8°C 97% 2.0 mph S3.2 kmh S 5.0 mph8.0 kmh 30.29 in1025.7 mb 0.00 in0.0 mm 0.00 in0.0 mm 0.01 in0.3 mm
08:48 AM 48.9°F9.4°C 48.0°F8.9°C 97% 3.0 mph S4.8 kmh S 5.0 mph8.0 kmh 30.29 in1025.7 mb 0.00 in0.0 mm 0.00 in0.0 mm 0.01 in0.3 mm
08:51 AM 49.1°F9.5°C 48.6°F9.2°C 98% 3.0 mph S4.8 kmh S 6.0 mph9.7 kmh 30.29 in1025.7 mb 0.00 in0.0 mm 0.00 in0.0 mm 0.01 in0.3 mm
08:54 AM 49.3°F9.6°C 48.6°F9.2°C 97% 3.0 mph SSE4.8 kmh SSE 6.0 mph9.7 kmh 30.29 in1025.7 mb 0.00 in0.0 mm 0.00 in0.0 mm 0.01 in0.3 mm
08:57 AM 49.5°F9.7°C 48.6°F9.2°C 97% 3.0 mph SSE4.8 kmh SSE 6.0 mph9.7 kmh 30.29 in1025.7 mb 0.00 in0.0 mm 0.00 in0.0 mm 0.01 in0.3 mm
09:00 AM 49.5°F9.7°C 48.6°F9.2°C 97% 3.0 mph SSE4.8 kmh SSE 5.0 mph8.0 kmh 30.29 in1025.7 mb 0.00 in0.0 mm 0.00 in0.0 mm 0.01 in0.3 mm
09:03 AM 49.5°F9.7°C 48.7°F9.3°C 97% 3.0 mph SSE4.8 kmh SSE 5.0 mph8.0 kmh 30.29 in1025.7 mb 0.00 in0.0 mm 0.00 in0.0 mm 0.01 in0.3 mm
09:06 AM 49.5°F9.7°C 48.7°F9.3°C 97% 3.0 mph SSE4.8 kmh SSE 5.0 mph8.0 kmh 30.29 in1025.7 mb 0.00 in0.0 mm 0.00 in0.0 mm 0.01 in0.3 mm
09:09 AM 49.6°F9.8°C 48.9°F9.4°C 97% 3.0 mph SSE4.8 kmh SSE 5.0 mph8.0 kmh 30.29 in1025.7 mb 0.00 in0.0 mm 0.00 in0.0 mm 0.01 in0.3 mm
09:12 AM 49.8°F9.9°C 48.9°F9.4°C 97% 3.0 mph SSE4.8 kmh SSE 5.0 mph8.0 kmh 30.29 in1025.7 mb 0.00 in0.0 mm 0.00 in0.0 mm 0.01 in0.3 mm
09:15 AM 50.0°F10.0°C 49.1°F9.5°C 97% 3.0 mph SSE4.8 kmh SSE 5.0 mph8.0 kmh 30.30 in1026.1 mb 0.00 in0.0 mm 0.00 in0.0 mm 0.01 in0.3 mm
09:18 AM 50.2°F10.1°C 49.3°F9.6°C 97% 3.0 mph SSE4.8 kmh SSE 5.0 mph8.0 kmh 30.30 in1026.1 mb 0.00 in0.0 mm 0.00 in0.0 mm 0.01 in0.3 mm
09:21 AM 50.4°F10.2°C 49.6°F9.8°C 97% 3.0 mph SSE4.8 kmh SSE 5.0 mph8.0 kmh 30.30 in1026.1 mb 0.00 in0.0 mm 0.00 in0.0 mm 0.01 in0.3 mm
09:24 AM 50.5°F10.3°C 49.8°F9.9°C 97% 3.0 mph SSE4.8 kmh SSE 5.0 mph8.0 kmh 30.30 in1026.1 mb 0.00 in0.0 mm 0.00 in0.0 mm 0.01 in0.3 mm
09:27 AM 50.7°F10.4°C 50.0°F10.0°C 97% 4.0 mph SSE6.4 kmh SSE 5.0 mph8.0 kmh 30.30 in1026.1 mb 0.00 in0.0 mm 0.00 in0.0 mm 0.01 in0.3 mm
09:30 AM 51.1°F10.6°C 50.2°F10.1°C 97% 4.0 mph SSE6.4 kmh SSE 7.0 mph11.3 kmh 30.30 in1026.1 mb 0.00 in0.0 mm 0.00 in0.0 mm 0.01 in0.3 mm
09:33 AM 51.3°F10.7°C 50.5°F10.3°C 97% 4.0 mph S6.4 kmh S 7.0 mph11.3 kmh 30.30 in1026.1 mb 0.00 in0.0 mm 0.00 in0.0 mm 0.01 in0.3 mm
09:36 AM 51.6°F10.9°C 50.7°F10.4°C 97% 4.0 mph S6.4 kmh S 7.0 mph11.3 kmh 30.29 in1025.7 mb 0.00 in0.0 mm 0.00 in0.0 mm 0.01 in0.3 mm
09:39 AM 51.6°F10.9°C 50.9°F10.5°C 97% 4.0 mph S6.4 kmh S 6.0 mph9.7 kmh 30.29 in1025.7 mb 0.00 in0.0 mm 0.00 in0.0 mm 0.01 in0.3 mm
09:42 AM 52.0°F11.1°C 51.3°F10.7°C 97% 5.0 mph S8.0 kmh S 6.0 mph9.7 kmh 30.29 in1025.7 mb 0.00 in0.0 mm 0.00 in0.0 mm 0.01 in0.3 mm
09:45 AM 52.3°F11.3°C 51.6°F10.9°C 97% 5.0 mph S8.0 kmh S 7.0 mph11.3 kmh 30.29 in1025.7 mb 0.00 in0.0 mm 0.00 in0.0 mm 0.01 in0.3 mm
09:48 AM 52.5°F11.4°C 51.8°F11.0°C 97% 5.0 mph S8.0 kmh S 7.0 mph11.3 kmh 30.30 in1026.1 mb 0.00 in0.0 mm 0.00 in0.0 mm 0.01 in0.3 mm
09:51 AM 52.9°F11.6°C 52.0°F11.1°C 97% 5.0 mph S8.0 kmh S 9.0 mph14.5 kmh 30.29 in1025.7 mb 0.00 in0.0 mm 0.00 in0.0 mm 0.01 in0.3 mm
09:54 AM 53.1°F11.7°C 52.3°F11.3°C 97% 5.0 mph SSE8.0 kmh SSE 9.0 mph14.5 kmh 30.30 in1026.1 mb 0.00 in0.0 mm 0.00 in0.0 mm 0.01 in0.3 mm
09:57 AM 53.2°F11.8°C 52.3°F11.3°C 97% 5.0 mph S8.0 kmh S 9.0 mph14.5 kmh 30.29 in1025.7 mb 0.00 in0.0 mm 0.00 in0.0 mm 0.01 in0.3 mm
10:00 AM 53.2°F11.8°C 52.2°F11.2°C 96% 6.0 mph S9.7 kmh S 9.0 mph14.5 kmh 30.30 in1026.1 mb 0.00 in0.0 mm 0.00 in0.0 mm 0.01 in0.3 mm
10:03 AM 53.4°F11.9°C 52.3°F11.3°C 96% 6.0 mph SSE9.7 kmh SSE 9.0 mph14.5 kmh 30.30 in1026.1 mb 0.00 in0.0 mm 0.00 in0.0 mm 0.01 in0.3 mm
10:06 AM 53.4°F11.9°C 52.3°F11.3°C 96% 7.0 mph SSE11.3 kmh SSE 9.0 mph14.5 kmh 30.30 in1026.1 mb 0.00 in0.0 mm 0.00 in0.0 mm 0.01 in0.3 mm
10:09 AM 53.8°F12.1°C 52.5°F11.4°C 96% 6.0 mph SSE9.7 kmh SSE 9.0 mph14.5 kmh 30.30 in1026.1 mb 0.00 in0.0 mm 0.00 in0.0 mm 0.01 in0.3 mm
10:12 AM 54.0°F12.2°C 52.9°F11.6°C 96% 6.0 mph SSE9.7 kmh SSE 9.0 mph14.5 kmh 30.30 in1026.1 mb 0.00 in0.0 mm 0.00 in0.0 mm 0.01 in0.3 mm
10:15 AM 54.1°F12.3°C 52.9°F11.6°C 95% 5.0 mph SSE8.0 kmh SSE 8.0 mph12.9 kmh 30.30 in1026.1 mb 0.00 in0.0 mm 0.00 in0.0 mm 0.01 in0.3 mm
10:18 AM 54.5°F12.5°C 53.4°F11.9°C 96% 5.0 mph SE8.0 kmh SE 8.0 mph12.9 kmh 30.30 in1026.1 mb 0.00 in0.0 mm 0.00 in0.0 mm 0.01 in0.3 mm
10:21 AM 55.0°F12.8°C 54.0°F12.2°C 96% 5.0 mph SSE8.0 kmh SSE 8.0 mph12.9 kmh 30.30 in1026.1 mb 0.00 in0.0 mm 0.00 in0.0 mm 0.01 in0.3 mm
10:24 AM 55.2°F12.9°C 54.1°F12.3°C 96% 5.0 mph SSE8.0 kmh SSE 8.0 mph12.9 kmh 30.30 in1026.1 mb 0.00 in0.0 mm 0.00 in0.0 mm 0.01 in0.3 mm
10:27 AM 55.2°F12.9°C 54.0°F12.2°C 95% 5.0 mph SSE8.0 kmh SSE 8.0 mph12.9 kmh 30.29 in1025.7 mb 0.00 in0.0 mm 0.00 in0.0 mm 0.01 in0.3 mm
10:30 AM 55.4°F13.0°C 53.8°F12.1°C 94% 6.0 mph SSE9.7 kmh SSE 10.0 mph16.1 kmh 30.30 in1026.1 mb 0.00 in0.0 mm 0.00 in0.0 mm 0.01 in0.3 mm
10:33 AM 55.4°F13.0°C 53.8°F12.1°C 94% 7.0 mph SSE11.3 kmh SSE 10.0 mph16.1 kmh 30.30 in1026.1 mb 0.00 in0.0 mm 0.00 in0.0 mm 0.01 in0.3 mm
10:36 AM 55.6°F13.1°C 53.8°F12.1°C 94% 7.0 mph SSE11.3 kmh SSE 10.0 mph16.1 kmh 30.30 in1026.1 mb 0.00 in0.0 mm 0.00 in0.0 mm 0.01 in0.3 mm
10:39 AM 55.6°F13.1°C 54.0°F12.2°C 94% 8.0 mph SSE12.9 kmh SSE 10.0 mph16.1 kmh 30.30 in1026.1 mb 0.00 in0.0 mm 0.00 in0.0 mm 0.01 in0.3 mm
10:42 AM 55.8°F13.2°C 54.0°F12.2°C 94% 8.0 mph SSE12.9 kmh SSE 11.0 mph17.7 kmh 30.30 in1026.1 mb 0.00 in0.0 mm 0.00 in0.0 mm 0.01 in0.3 mm
10:45 AM 55.8°F13.2°C 53.8°F12.1°C 93% 8.0 mph SSE12.9 kmh SSE 11.0 mph17.7 kmh 30.30 in1026.1 mb 0.00 in0.0 mm 0.00 in0.0 mm 0.01 in0.3 mm
10:48 AM 55.6°F13.1°C 53.6°F12.0°C 93% 8.0 mph SSE12.9 kmh SSE 11.0 mph17.7 kmh 30.30 in1026.1 mb 0.00 in0.0 mm 0.00 in0.0 mm 0.01 in0.3 mm
10:51 AM 55.8°F13.2°C 53.8°F12.1°C 93% 8.0 mph SSE12.9 kmh SSE 11.0 mph17.7 kmh 30.30 in1026.1 mb 0.00 in0.0 mm 0.00 in0.0 mm 0.01 in0.3 mm
10:54 AM 55.8°F13.2°C 53.4°F11.9°C 92% 8.0 mph SSE12.9 kmh SSE 11.0 mph17.7 kmh 30.30 in1026.1 mb 0.00 in0.0 mm 0.00 in0.0 mm 0.01 in0.3 mm
10:57 AM 55.6°F13.1°C 53.1°F11.7°C 91% 7.0 mph SSE11.3 kmh SSE 11.0 mph17.7 kmh 30.30 in1026.1 mb 0.00 in0.0 mm 0.00 in0.0 mm 0.01 in0.3 mm
11:00 AM 55.8°F13.2°C 53.4°F11.9°C 92% 6.0 mph SSE9.7 kmh SSE 11.0 mph17.7 kmh 30.30 in1026.1 mb 0.00 in0.0 mm 0.00 in0.0 mm 0.01 in0.3 mm
11:03 AM 55.8°F13.2°C 53.2°F11.8°C 91% 6.0 mph S9.7 kmh S 9.0 mph14.5 kmh 30.30 in1026.1 mb 0.00 in0.0 mm 0.00 in0.0 mm 0.01 in0.3 mm
11:06 AM 55.9°F13.3°C 53.4°F11.9°C 91% 6.0 mph S9.7 kmh S 9.0 mph14.5 kmh 30.30 in1026.1 mb 0.00 in0.0 mm 0.00 in0.0 mm 0.01 in0.3 mm
11:09 AM 56.1°F13.4°C 53.6°F12.0°C 91% 6.0 mph SSE9.7 kmh SSE 11.0 mph17.7 kmh 30.30 in1026.1 mb 0.00 in0.0 mm 0.00 in0.0 mm 0.01 in0.3 mm
11:12 AM 56.3°F13.5°C 53.4°F11.9°C 90% 7.0 mph SSE11.3 kmh SSE 11.0 mph17.7 kmh 30.30 in1026.1 mb 0.00 in0.0 mm 0.00 in0.0 mm 0.01 in0.3 mm
11:15 AM 56.1°F13.4°C 53.2°F11.8°C 90% 7.0 mph SSE11.3 kmh SSE 11.0 mph17.7 kmh 30.30 in1026.1 mb 0.00 in0.0 mm 0.00 in0.0 mm 0.01 in0.3 mm
11:18 AM 56.1°F13.4°C 52.9°F11.6°C 89% 8.0 mph SSE12.9 kmh SSE 11.0 mph17.7 kmh 30.30 in1026.1 mb 0.00 in0.0 mm 0.00 in0.0 mm 0.01 in0.3 mm
11:21 AM 55.9°F13.3°C 52.9°F11.6°C 89% 8.0 mph SE12.9 kmh SE 11.0 mph17.7 kmh 30.30 in1026.1 mb 0.00 in0.0 mm 0.00 in0.0 mm 0.01 in0.3 mm
11:24 AM 55.9°F13.3°C 52.9°F11.6°C 89% 8.0 mph SE12.9 kmh SE 11.0 mph17.7 kmh 30.30 in1026.1 mb 0.00 in0.0 mm 0.00 in0.0 mm 0.01 in0.3 mm
11:27 AM 55.9°F13.3°C 52.9°F11.6°C 89% 8.0 mph SE12.9 kmh SE 11.0 mph17.7 kmh 30.30 in1026.1 mb 0.00 in0.0 mm 0.00 in0.0 mm 0.01 in0.3 mm
11:30 AM 55.9°F13.3°C 52.7°F11.5°C 89% 8.0 mph SE12.9 kmh SE 12.0 mph19.3 kmh 30.30 in1026.1 mb 0.00 in0.0 mm 0.00 in0.0 mm 0.01 in0.3 mm
11:33 AM 55.9°F13.3°C 53.8°F12.1°C 92% 8.0 mph SE12.9 kmh SE 12.0 mph19.3 kmh 30.30 in1026.1 mb 0.00 in0.0 mm 0.00 in0.0 mm 0.01 in0.3 mm
11:36 AM 55.9°F13.3°C 52.7°F11.5°C 89% 8.0 mph SE12.9 kmh SE 13.0 mph20.9 kmh 30.30 in1026.1 mb 0.00 in0.0 mm 0.00 in0.0 mm 0.01 in0.3 mm
11:39 AM 55.8°F13.2°C 52.5°F11.4°C 89% 8.0 mph SE12.9 kmh SE 13.0 mph20.9 kmh 30.30 in1026.1 mb 0.00 in0.0 mm 0.00 in0.0 mm 0.01 in0.3 mm
11:42 AM 55.6°F13.1°C 52.2°F11.2°C 88% 8.0 mph SE12.9 kmh SE 13.0 mph20.9 kmh 30.29 in1025.7 mb 0.00 in0.0 mm 0.00 in0.0 mm 0.01 in0.3 mm
11:45 AM 55.2°F12.9°C 52.0°F11.1°C 89% 8.0 mph SSE12.9 kmh SSE 13.0 mph20.9 kmh 30.29 in1025.7 mb 0.00 in0.0 mm 0.00 in0.0 mm 0.01 in0.3 mm
11:48 AM 55.2°F12.9°C 52.0°F11.1°C 89% 8.0 mph SSE12.9 kmh SSE 14.0 mph22.5 kmh 30.29 in1025.7 mb 0.00 in0.0 mm 0.00 in0.0 mm 0.01 in0.3 mm
11:51 AM 55.2°F12.9°C 52.0°F11.1°C 89% 9.0 mph SSE14.5 kmh SSE 15.0 mph24.1 kmh 30.29 in1025.7 mb 0.00 in0.0 mm 0.00 in0.0 mm 0.01 in0.3 mm
11:54 AM 55.2°F12.9°C 52.3°F11.3°C 90% 9.0 mph SSE14.5 kmh SSE 15.0 mph24.1 kmh 30.29 in1025.7 mb 0.00 in0.0 mm 0.00 in0.0 mm 0.01 in0.3 mm
11:57 AM 55.2°F12.9°C 52.3°F11.3°C 90% 10.0 mph SSE16.1 kmh SSE 16.0 mph25.7 kmh 30.29 in1025.7 mb 0.00 in0.0 mm 0.00 in0.0 mm 0.01 in0.3 mm
12:00 PM 55.2°F12.9°C 52.3°F11.3°C 90% 10.0 mph SSE16.1 kmh SSE 16.0 mph25.7 kmh 30.29 in1025.7 mb 0.00 in0.0 mm 0.00 in0.0 mm 0.01 in0.3 mm
12:03 PM 55.6°F13.1°C 52.7°F11.5°C 90% 10.0 mph SSE16.1 kmh SSE 16.0 mph25.7 kmh 30.29 in1025.7 mb 0.00 in0.0 mm 0.00 in0.0 mm 0.01 in0.3 mm
12:06 PM 55.8°F13.2°C 52.9°F11.6°C 90% 9.0 mph SSE14.5 kmh SSE 15.0 mph24.1 kmh 30.29 in1025.7 mb 0.00 in0.0 mm 0.00 in0.0 mm 0.01 in0.3 mm
12:09 PM 55.9°F13.3°C 53.1°F11.7°C 90% 9.0 mph SSE14.5 kmh SSE 14.0 mph22.5 kmh 30.29 in1025.7 mb 0.00 in0.0 mm 0.00 in0.0 mm 0.01 in0.3 mm
12:12 PM 56.5°F13.6°C 53.4°F11.9°C 90% 8.0 mph SSE12.9 kmh SSE 12.0 mph19.3 kmh 30.29 in1025.7 mb 0.00 in0.0 mm 0.00 in0.0 mm 0.01 in0.3 mm
12:15 PM 56.7°F13.7°C 53.8°F12.1°C 90% 8.0 mph SSE12.9 kmh SSE 12.0 mph19.3 kmh 30.29 in1025.7 mb 0.00 in0.0 mm 0.00 in0.0 mm 0.01 in0.3 mm
12:18 PM 56.8°F13.8°C 53.6°F12.0°C 89% 7.0 mph SSE11.3 kmh SSE 12.0 mph19.3 kmh 30.29 in1025.7 mb 0.00 in0.0 mm 0.00 in0.0 mm 0.01 in0.3 mm
12:21 PM 57.0°F13.9°C 53.4°F11.9°C 88% 7.0 mph SSE11.3 kmh SSE 12.0 mph19.3 kmh 30.28 in1025.4 mb 0.00 in0.0 mm 0.00 in0.0 mm 0.01 in0.3 mm
12:24 PM 57.0°F13.9°C 53.6°F12.0°C 88% 8.0 mph SSE12.9 kmh SSE 14.0 mph22.5 kmh 30.28 in1025.4 mb 0.00 in0.0 mm 0.00 in0.0 mm 0.01 in0.3 mm
12:27 PM 57.0°F13.9°C 53.6°F12.0°C 88% 9.0 mph SSE14.5 kmh SSE 15.0 mph24.1 kmh 30.28 in1025.4 mb 0.00 in0.0 mm 0.00 in0.0 mm 0.01 in0.3 mm
12:30 PM 57.0°F13.9°C 53.6°F12.0°C 88% 10.0 mph SSE16.1 kmh SSE 15.0 mph24.1 kmh 30.28 in1025.4 mb 0.00 in0.0 mm 0.00 in0.0 mm 0.01 in0.3 mm
12:33 PM 57.0°F13.9°C 53.6°F12.0°C 88% 10.0 mph SSE16.1 kmh SSE 15.0 mph24.1 kmh 30.28 in1025.4 mb 0.00 in0.0 mm 0.00 in0.0 mm 0.01 in0.3 mm
12:36 PM 57.0°F13.9°C 53.6°F12.0°C 88% 10.0 mph SSE16.1 kmh SSE 15.0 mph24.1 kmh 30.28 in1025.4 mb 0.00 in0.0 mm 0.00 in0.0 mm 0.01 in0.3 mm
12:39 PM 57.0°F13.9°C 53.6°F12.0°C 88% 9.0 mph SSE14.5 kmh SSE 15.0 mph24.1 kmh 30.28 in1025.4 mb 0.00 in0.0 mm 0.00 in0.0 mm 0.01 in0.3 mm
12:42 PM 57.0°F13.9°C 53.6°F12.0°C 88% 9.0 mph SSE14.5 kmh SSE 14.0 mph22.5 kmh 30.28 in1025.4 mb 0.00 in0.0 mm 0.00 in0.0 mm 0.01 in0.3 mm
12:45 PM 57.2°F14.0°C 53.6°F12.0°C 88% 9.0 mph SSE14.5 kmh SSE 13.0 mph20.9 kmh 30.28 in1025.4 mb 0.00 in0.0 mm 0.00 in0.0 mm 0.01 in0.3 mm
12:48 PM 57.2°F14.0°C 53.6°F12.0°C 88% 9.0 mph SSE14.5 kmh SSE 13.0 mph20.9 kmh 30.28 in1025.4 mb 0.00 in0.0 mm 0.00 in0.0 mm 0.01 in0.3 mm
12:51 PM 57.4°F14.1°C 54.1°F12.3°C 89% 9.0 mph SSE14.5 kmh SSE 13.0 mph20.9 kmh 30.28 in1025.4 mb 0.00 in0.0 mm 0.00 in0.0 mm 0.01 in0.3 mm
12:54 PM 57.6°F14.2°C 54.0°F12.2°C 88% 9.0 mph SSE14.5 kmh SSE 14.0 mph22.5 kmh 30.28 in1025.4 mb 0.00 in0.0 mm 0.00 in0.0 mm 0.01 in0.3 mm
12:57 PM 57.4°F14.1°C 53.4°F11.9°C 87% 9.0 mph SSE14.5 kmh SSE 14.0 mph22.5 kmh 30.28 in1025.4 mb 0.00 in0.0 mm 0.00 in0.0 mm 0.01 in0.3 mm
01:00 PM 57.2°F14.0°C 53.6°F12.0°C 88% 9.0 mph SE14.5 kmh SE 14.0 mph22.5 kmh 30.28 in1025.4 mb 0.00 in0.0 mm 0.00 in0.0 mm 0.01 in0.3 mm
01:03 PM 57.4°F14.1°C 54.0°F12.2°C 88% 8.0 mph SSE12.9 kmh SSE 13.0 mph20.9 kmh 30.28 in1025.4 mb 0.00 in0.0 mm 0.00 in0.0 mm 0.01 in0.3 mm
01:06 PM 57.6°F14.2°C 54.1°F12.3°C 88% 8.0 mph SSE12.9 kmh SSE 13.0 mph20.9 kmh 30.28 in1025.4 mb 0.00 in0.0 mm 0.00 in0.0 mm 0.01 in0.3 mm
01:09 PM 58.1°F14.5°C 54.5°F12.5°C 88% 7.0 mph SSE11.3 kmh SSE 13.0 mph20.9 kmh 30.28 in1025.4 mb 0.00 in0.0 mm 0.00 in0.0 mm 0.01 in0.3 mm
01:12 PM 58.6°F14.8°C 54.7°F12.6°C 87% 8.0 mph SSE12.9 kmh SSE 13.0 mph20.9 kmh 30.28 in1025.4 mb 0.00 in0.0 mm 0.00 in0.0 mm 0.01 in0.3 mm
01:15 PM 58.6°F14.8°C 54.1°F12.3°C 85% 8.0 mph SSE12.9 kmh SSE 13.0 mph20.9 kmh 30.28 in1025.4 mb 0.00 in0.0 mm 0.00 in0.0 mm 0.01 in0.3 mm
01:18 PM 58.5°F14.7°C 53.2°F11.8°C 83% 8.0 mph SSE12.9 kmh SSE 15.0 mph24.1 kmh 30.28 in1025.4 mb 0.00 in0.0 mm 0.00 in0.0 mm 0.01 in0.3 mm
01:21 PM 57.6°F14.2°C 52.2°F11.2°C 82% 8.0 mph SSE12.9 kmh SSE 15.0 mph24.1 kmh 30.28 in1025.4 mb 0.00 in0.0 mm 0.00 in0.0 mm 0.01 in0.3 mm
01:24 PM 56.5°F13.6°C 51.4°F10.8°C 83% 10.0 mph SSE16.1 kmh SSE 18.0 mph29.0 kmh 30.28 in1025.4 mb 0.00 in0.0 mm 0.00 in0.0 mm 0.01 in0.3 mm
01:27 PM 55.6°F13.1°C 51.1°F10.6°C 85% 11.0 mph SSE17.7 kmh SSE 18.0 mph29.0 kmh 30.27 in1025.1 mb 0.00 in0.0 mm 0.00 in0.0 mm 0.01 in0.3 mm
01:30 PM 55.2°F12.9°C 51.1°F10.6°C 86% 10.0 mph SSE16.1 kmh SSE 18.0 mph29.0 kmh 30.28 in1025.4 mb 0.00 in0.0 mm 0.00 in0.0 mm 0.01 in0.3 mm
01:33 PM 54.9°F12.7°C 51.1°F10.6°C 87% 9.0 mph SSE14.5 kmh SSE 17.0 mph27.4 kmh 30.27 in1025.1 mb 0.00 in0.0 mm 0.00 in0.0 mm 0.01 in0.3 mm
01:36 PM 54.7°F12.6°C 50.7°F10.4°C 87% 9.0 mph SSE14.5 kmh SSE 17.0 mph27.4 kmh 30.27 in1025.1 mb 0.00 in0.0 mm 0.00 in0.0 mm 0.01 in0.3 mm
01:39 PM 54.3°F12.4°C 50.5°F10.3°C 87% 11.0 mph SSE17.7 kmh SSE 17.0 mph27.4 kmh 30.27 in1025.1 mb 0.00 in0.0 mm 0.00 in0.0 mm 0.01 in0.3 mm
01:42 PM 54.3°F12.4°C 50.5°F10.3°C 87% 12.0 mph SSE19.3 kmh SSE 18.0 mph29.0 kmh 30.27 in1025.1 mb 0.00 in0.0 mm 0.00 in0.0 mm 0.01 in0.3 mm
01:45 PM 54.3°F12.4°C 50.9°F10.5°C 88% 11.0 mph SSE17.7 kmh SSE 18.0 mph29.0 kmh 30.27 in1025.1 mb 0.00 in0.0 mm 0.00 in0.0 mm 0.01 in0.3 mm
01:48 PM 54.3°F12.4°C 50.9°F10.5°C 88% 12.0 mph SSE19.3 kmh SSE 18.0 mph29.0 kmh 30.27 in1025.1 mb 0.00 in0.0 mm 0.00 in0.0 mm 0.01 in0.3 mm
01:51 PM 54.3°F12.4°C 50.9°F10.5°C 88% 12.0 mph SSE19.3 kmh SSE 18.0 mph29.0 kmh 30.27 in1025.1 mb 0.00 in0.0 mm 0.00 in0.0 mm 0.01 in0.3 mm
01:54 PM 54.1°F12.3°C 50.5°F10.3°C 88% 11.0 mph SSE17.7 kmh SSE 18.0 mph29.0 kmh 30.27 in1025.1 mb 0.00 in0.0 mm 0.00 in0.0 mm 0.01 in0.3 mm
01:57 PM 54.3°F12.4°C 51.1°F10.6°C 89% 11.0 mph SSE17.7 kmh SSE 17.0 mph27.4 kmh 30.27 in1025.1 mb 0.00 in0.0 mm 0.00 in0.0 mm 0.01 in0.3 mm
02:00 PM 54.9°F12.7°C 52.0°F11.1°C 90% 11.0 mph SSE17.7 kmh SSE 18.0 mph29.0 kmh 30.27 in1025.1 mb 0.00 in0.0 mm 0.00 in0.0 mm 0.01 in0.3 mm
02:03 PM 55.0°F12.8°C 52.2°F11.2°C 90% 10.0 mph SSE16.1 kmh SSE 18.0 mph29.0 kmh 30.27 in1025.1 mb 0.00 in0.0 mm 0.00 in0.0 mm 0.01 in0.3 mm
02:06 PM 55.0°F12.8°C 52.0°F11.1°C 89% 10.0 mph SSE16.1 kmh SSE 18.0 mph29.0 kmh 30.27 in1025.1 mb 0.00 in0.0 mm 0.00 in0.0 mm 0.01 in0.3 mm
02:09 PM 54.9°F12.7°C 51.8°F11.0°C 89% 10.0 mph SSE16.1 kmh SSE 16.0 mph25.7 kmh 30.27 in1025.1 mb 0.00 in0.0 mm 0.00 in0.0 mm 0.01 in0.3 mm
02:12 PM 55.0°F12.8°C 52.2°F11.2°C 90% 11.0 mph SSE17.7 kmh SSE 16.0 mph25.7 kmh 30.27 in1025.1 mb 0.00 in0.0 mm 0.00 in0.0 mm 0.01 in0.3 mm
02:15 PM 55.4°F13.0°C 52.5°F11.4°C 90% 12.0 mph SSE19.3 kmh SSE 18.0 mph29.0 kmh 30.27 in1025.1 mb 0.00 in0.0 mm 0.00 in0.0 mm 0.01 in0.3 mm
02:18 PM 55.2°F12.9°C 52.2°F11.2°C 89% 12.0 mph SSE19.3 kmh SSE 18.0 mph29.0 kmh 30.27 in1025.1 mb 0.00 in0.0 mm 0.00 in0.0 mm 0.01 in0.3 mm
02:21 PM 55.0°F12.8°C 51.4°F10.8°C 88% 12.0 mph SSE19.3 kmh SSE 18.0 mph29.0 kmh 30.27 in1025.1 mb 0.00 in0.0 mm 0.00 in0.0 mm 0.01 in0.3 mm
02:24 PM 55.0°F12.8°C 51.8°F11.0°C 89% 11.0 mph SSE17.7 kmh SSE 18.0 mph29.0 kmh 30.26 in1024.7 mb 0.00 in0.0 mm 0.00 in0.0 mm 0.01 in0.3 mm
02:27 PM 55.0°F12.8°C 52.0°F11.1°C 89% 11.0 mph SSE17.7 kmh SSE 16.0 mph25.7 kmh 30.26 in1024.7 mb 0.00 in0.0 mm 0.00 in0.0 mm 0.01 in0.3 mm
02:30 PM 55.2°F12.9°C 52.2°F11.2°C 89% 11.0 mph SSE17.7 kmh SSE 17.0 mph27.4 kmh 30.26 in1024.7 mb 0.00 in0.0 mm 0.00 in0.0 mm 0.01 in0.3 mm
02:33 PM 55.4°F13.0°C 52.2°F11.2°C 89% 11.0 mph SSE17.7 kmh SSE 17.0 mph27.4 kmh 30.26 in1024.7 mb 0.00 in0.0 mm 0.00 in0.0 mm 0.01 in0.3 mm
02:36 PM 55.6°F13.1°C 52.3°F11.3°C 89% 12.0 mph SSE19.3 kmh SSE 17.0 mph27.4 kmh 30.26 in1024.7 mb 0.00 in0.0 mm 0.00 in0.0 mm 0.01 in0.3 mm
02:39 PM 55.6°F13.1°C 52.2°F11.2°C 88% 12.0 mph SSE19.3 kmh SSE 17.0 mph27.4 kmh 30.26 in1024.7 mb 0.00 in0.0 mm 0.00 in0.0 mm 0.01 in0.3 mm
02:42 PM 55.9°F13.3°C 52.7°F11.5°C 89% 12.0 mph SSE19.3 kmh SSE 17.0 mph27.4 kmh 30.26 in1024.7 mb 0.00 in0.0 mm 0.00 in0.0 mm 0.01 in0.3 mm
02:45 PM 56.1°F13.4°C 52.9°F11.6°C 89% 12.0 mph SSE19.3 kmh SSE 16.0 mph25.7 kmh 30.26 in1024.7 mb 0.00 in0.0 mm 0.00 in0.0 mm 0.01 in0.3 mm
02:48 PM 56.5°F13.6°C 53.2°F11.8°C 89% 11.0 mph SSE17.7 kmh SSE 16.0 mph25.7 kmh 30.26 in1024.7 mb 0.00 in0.0 mm 0.00 in0.0 mm 0.01 in0.3 mm
02:51 PM 56.5°F13.6°C 52.9°F11.6°C 88% 11.0 mph SSE17.7 kmh SSE 16.0 mph25.7 kmh 30.26 in1024.7 mb 0.00 in0.0 mm 0.00 in0.0 mm 0.01 in0.3 mm
02:54 PM 56.5°F13.6°C 53.2°F11.8°C 89% 10.0 mph SSE16.1 kmh SSE 15.0 mph24.1 kmh 30.26 in1024.7 mb 0.00 in0.0 mm 0.00 in0.0 mm 0.01 in0.3 mm
02:57 PM 56.5°F13.6°C 53.2°F11.8°C 89% 10.0 mph SSE16.1 kmh SSE 15.0 mph24.1 kmh 30.26 in1024.7 mb 0.00 in0.0 mm 0.00 in0.0 mm 0.01 in0.3 mm
03:00 PM 56.7°F13.7°C 53.2°F11.8°C 88% 10.0 mph SSE16.1 kmh SSE 15.0 mph24.1 kmh 30.26 in1024.7 mb 0.00 in0.0 mm 0.00 in0.0 mm 0.01 in0.3 mm
03:03 PM 56.8°F13.8°C 53.2°F11.8°C 88% 10.0 mph SSE16.1 kmh SSE 15.0 mph24.1 kmh 30.26 in1024.7 mb 0.00 in0.0 mm 0.00 in0.0 mm 0.01 in0.3 mm
03:06 PM 57.0°F13.9°C 53.4°F11.9°C 88% 10.0 mph SSE16.1 kmh SSE 15.0 mph24.1 kmh 30.26 in1024.7 mb 0.00 in0.0 mm 0.00 in0.0 mm 0.01 in0.3 mm
03:09 PM 57.0°F13.9°C 53.4°F11.9°C 88% 10.0 mph SE16.1 kmh SE 15.0 mph24.1 kmh 30.26 in1024.7 mb 0.00 in0.0 mm 0.00 in0.0 mm 0.01 in0.3 mm
03:12 PM 57.2°F14.0°C 53.6°F12.0°C 88% 10.0 mph SE16.1 kmh SE 15.0 mph24.1 kmh 30.26 in1024.7 mb 0.00 in0.0 mm 0.00 in0.0 mm 0.01 in0.3 mm
03:15 PM 57.4°F14.1°C 53.4°F11.9°C 87% 10.0 mph SE16.1 kmh SE 15.0 mph24.1 kmh 30.26 in1024.7 mb 0.00 in0.0 mm 0.00 in0.0 mm 0.01 in0.3 mm
03:18 PM 57.4°F14.1°C 53.4°F11.9°C 87% 10.0 mph SE16.1 kmh SE 15.0 mph24.1 kmh 30.26 in1024.7 mb 0.00 in0.0 mm 0.00 in0.0 mm 0.01 in0.3 mm
03:21 PM 57.4°F14.1°C 53.4°F11.9°C 87% 9.0 mph SE14.5 kmh SE 15.0 mph24.1 kmh 30.25 in1024.4 mb 0.00 in0.0 mm 0.00 in0.0 mm 0.01 in0.3 mm
03:24 PM 57.4°F14.1°C 53.1°F11.7°C 86% 9.0 mph SE14.5 kmh SE 15.0 mph24.1 kmh 30.25 in1024.4 mb 0.00 in0.0 mm 0.00 in0.0 mm 0.01 in0.3 mm
03:27 PM 57.4°F14.1°C 53.6°F12.0°C 87% 8.0 mph SSE12.9 kmh SSE 15.0 mph24.1 kmh 30.25 in1024.4 mb 0.00 in0.0 mm 0.00 in0.0 mm 0.01 in0.3 mm
03:30 PM 57.7°F14.3°C 53.8°F12.1°C 87% 8.0 mph SSE12.9 kmh SSE 14.0 mph22.5 kmh 30.25 in1024.4 mb 0.00 in0.0 mm 0.00 in0.0 mm 0.01 in0.3 mm
03:33 PM 57.6°F14.2°C 53.4°F11.9°C 86% 8.0 mph SSE12.9 kmh SSE 14.0 mph22.5 kmh 30.25 in1024.4 mb 0.00 in0.0 mm 0.00 in0.0 mm 0.01 in0.3 mm
03:36 PM 57.7°F14.3°C 53.6°F12.0°C 86% 8.0 mph SSE12.9 kmh SSE 12.0 mph19.3 kmh 30.25 in1024.4 mb 0.00 in0.0 mm 0.00 in0.0 mm 0.01 in0.3 mm
03:39 PM 57.9°F14.4°C 53.8°F12.1°C 86% 8.0 mph SSE12.9 kmh SSE 15.0 mph24.1 kmh 30.25 in1024.4 mb 0.00 in0.0 mm 0.00 in0.0 mm 0.01 in0.3 mm
03:42 PM 57.9°F14.4°C 53.6°F12.0°C 85% 8.0 mph SSE12.9 kmh SSE 15.0 mph24.1 kmh 30.25 in1024.4 mb 0.00 in0.0 mm 0.00 in0.0 mm 0.01 in0.3 mm
03:45 PM 57.9°F14.4°C 53.4°F11.9°C 85% 9.0 mph SSE14.5 kmh SSE 15.0 mph24.1 kmh 30.25 in1024.4 mb 0.00 in0.0 mm 0.00 in0.0 mm 0.01 in0.3 mm
03:48 PM 57.7°F14.3°C 52.9°F11.6°C 84% 9.0 mph SSE14.5 kmh SSE 15.0 mph24.1 kmh 30.25 in1024.4 mb 0.00 in0.0 mm 0.00 in0.0 mm 0.01 in0.3 mm
03:51 PM 57.7°F14.3°C 53.2°F11.8°C 85% 10.0 mph SSE16.1 kmh SSE 15.0 mph24.1 kmh 30.25 in1024.4 mb 0.00 in0.0 mm 0.00 in0.0 mm 0.01 in0.3 mm
03:54 PM 57.6°F14.2°C 52.9°F11.6°C 84% 10.0 mph SSE16.1 kmh SSE 17.0 mph27.4 kmh 30.25 in1024.4 mb 0.00 in0.0 mm 0.00 in0.0 mm 0.01 in0.3 mm
03:57 PM 57.7°F14.3°C 53.2°F11.8°C 85% 10.0 mph SSE16.1 kmh SSE 17.0 mph27.4 kmh 30.25 in1024.4 mb 0.00 in0.0 mm 0.00 in0.0 mm 0.01 in0.3 mm
04:00 PM 57.7°F14.3°C 52.9°F11.6°C 84% 10.0 mph SSE16.1 kmh SSE 17.0 mph27.4 kmh 30.25 in1024.4 mb 0.00 in0.0 mm 0.00 in0.0 mm 0.01 in0.3 mm
04:03 PM 57.7°F14.3°C 52.9°F11.6°C 84% 10.0 mph SSE16.1 kmh SSE 15.0 mph24.1 kmh 30.25 in1024.4 mb 0.00 in0.0 mm 0.00 in0.0 mm 0.01 in0.3 mm
04:06 PM 57.9°F14.4°C 53.1°F11.7°C 84% 10.0 mph SSE16.1 kmh SSE 15.0 mph24.1 kmh 30.25 in1024.4 mb 0.00 in0.0 mm 0.00 in0.0 mm 0.01 in0.3 mm
04:09 PM 57.9°F14.4°C 53.1°F11.7°C 84% 10.0 mph SSE16.1 kmh SSE 13.0 mph20.9 kmh 30.25 in1024.4 mb 0.00 in0.0 mm 0.00 in0.0 mm 0.01 in0.3 mm
04:12 PM 58.1°F14.5°C 53.2°F11.8°C 84% 9.0 mph SSE14.5 kmh SSE 13.0 mph20.9 kmh 30.25 in1024.4 mb 0.00 in0.0 mm 0.00 in0.0 mm 0.01 in0.3 mm
04:15 PM 58.3°F14.6°C 53.4°F11.9°C 84% 8.0 mph SSE12.9 kmh SSE 13.0 mph20.9 kmh 30.25 in1024.4 mb 0.00 in0.0 mm 0.00 in0.0 mm 0.01 in0.3 mm
04:18 PM 58.3°F14.6°C 53.1°F11.7°C 83% 8.0 mph SSE12.9 kmh SSE 12.0 mph19.3 kmh 30.25 in1024.4 mb 0.00 in0.0 mm 0.00 in0.0 mm 0.01 in0.3 mm
04:21 PM 58.5°F14.7°C 53.1°F11.7°C 82% 8.0 mph S12.9 kmh S 15.0 mph24.1 kmh 30.25 in1024.4 mb 0.00 in0.0 mm 0.00 in0.0 mm 0.01 in0.3 mm
04:24 PM 58.8°F14.9°C 52.7°F11.5°C 80% 8.0 mph S12.9 kmh S 15.0 mph24.1 kmh 30.25 in1024.4 mb 0.00 in0.0 mm 0.00 in0.0 mm 0.01 in0.3 mm
04:27 PM 59.0°F15.0°C 52.9°F11.6°C 80% 8.0 mph S12.9 kmh S 15.0 mph24.1 kmh 30.25 in1024.4 mb 0.00 in0.0 mm 0.00 in0.0 mm 0.01 in0.3 mm
04:30 PM 59.0°F15.0°C 52.9°F11.6°C 80% 7.0 mph S11.3 kmh S 14.0 mph22.5 kmh 30.25 in1024.4 mb 0.00 in0.0 mm 0.00 in0.0 mm 0.01 in0.3 mm
04:33 PM 59.2°F15.1°C 52.3°F11.3°C 78% 7.0 mph S11.3 kmh S 13.0 mph20.9 kmh 30.25 in1024.4 mb 0.00 in0.0 mm 0.00 in0.0 mm 0.01 in0.3 mm
04:36 PM 59.4°F15.2°C 51.8°F11.0°C 76% 8.0 mph S12.9 kmh S 13.0 mph20.9 kmh 30.25 in1024.4 mb 0.00 in0.0 mm 0.00 in0.0 mm 0.01 in0.3 mm
04:39 PM 59.5°F15.3°C 51.6°F10.9°C 75% 9.0 mph S14.5 kmh S 14.0 mph22.5 kmh 30.25 in1024.4 mb 0.00 in0.0 mm 0.00 in0.0 mm 0.01 in0.3 mm
04:42 PM 59.7°F15.4°C 51.4°F10.8°C 74% 9.0 mph S14.5 kmh S 16.0 mph25.7 kmh 30.25 in1024.4 mb 0.00 in0.0 mm 0.00 in0.0 mm 0.01 in0.3 mm
04:45 PM 59.7°F15.4°C 50.7°F10.4°C 72% 10.0 mph S16.1 kmh S 16.0 mph25.7 kmh 30.25 in1024.4 mb 0.00 in0.0 mm 0.00 in0.0 mm 0.01 in0.3 mm
04:48 PM 59.7°F15.4°C 50.7°F10.4°C 72% 10.0 mph S16.1 kmh S 16.0 mph25.7 kmh 30.25 in1024.4 mb 0.00 in0.0 mm 0.00 in0.0 mm 0.01 in0.3 mm
04:51 PM 59.7°F15.4°C 50.7°F10.4°C 72% 9.0 mph S14.5 kmh S 15.0 mph24.1 kmh 30.25 in1024.4 mb 0.00 in0.0 mm 0.00 in0.0 mm 0.01 in0.3 mm
04:54 PM 59.7°F15.4°C 50.7°F10.4°C 72% 9.0 mph S14.5 kmh S 15.0 mph24.1 kmh 30.24 in1024.0 mb 0.00 in0.0 mm 0.00 in0.0 mm 0.01 in0.3 mm
04:57 PM 59.9°F15.5°C 50.5°F10.3°C 71% 8.0 mph S12.9 kmh S 14.0 mph22.5 kmh 30.24 in1024.0 mb 0.00 in0.0 mm 0.00 in0.0 mm 0.01 in0.3 mm
05:00 PM 59.7°F15.4°C 50.4°F10.2°C 71% 8.0 mph S12.9 kmh S 14.0 mph22.5 kmh 30.24 in1024.0 mb 0.00 in0.0 mm 0.00 in0.0 mm 0.01 in0.3 mm
05:03 PM 59.7°F15.4°C 51.1°F10.6°C 73% 8.0 mph S12.9 kmh S 14.0 mph22.5 kmh 30.25 in1024.4 mb 0.00 in0.0 mm 0.00 in0.0 mm 0.01 in0.3 mm
05:06 PM 59.7°F15.4°C 50.4°F10.2°C 71% 8.0 mph S12.9 kmh S 14.0 mph22.5 kmh 30.25 in1024.4 mb 0.00 in0.0 mm 0.00 in0.0 mm 0.01 in0.3 mm
05:09 PM 59.5°F15.3°C 51.3°F10.7°C 74% 8.0 mph S12.9 kmh S 14.0 mph22.5 kmh 30.24 in1024.0 mb 0.00 in0.0 mm 0.00 in0.0 mm 0.01 in0.3 mm
05:12 PM 59.2°F15.1°C 51.6°F10.9°C 76% 8.0 mph S12.9 kmh S 14.0 mph22.5 kmh 30.24 in1024.0 mb 0.00 in0.0 mm 0.00 in0.0 mm 0.01 in0.3 mm
05:15 PM 58.8°F14.9°C 51.6°F10.9°C 77% 8.0 mph SSE12.9 kmh SSE 13.0 mph20.9 kmh 30.24 in1024.0 mb 0.00 in0.0 mm 0.00 in0.0 mm 0.01 in0.3 mm
05:18 PM 58.1°F14.5°C 51.3°F10.7°C 78% 9.0 mph SSE14.5 kmh SSE 15.0 mph24.1 kmh 30.24 in1024.0 mb 0.00 in0.0 mm 0.00 in0.0 mm 0.01 in0.3 mm
05:21 PM 57.4°F14.1°C 50.9°F10.5°C 79% 9.0 mph SSE14.5 kmh SSE 15.0 mph24.1 kmh 30.25 in1024.4 mb 0.00 in0.0 mm 0.00 in0.0 mm 0.01 in0.3 mm
05:24 PM 56.8°F13.8°C 50.4°F10.2°C 79% 10.0 mph SSE16.1 kmh SSE 15.0 mph24.1 kmh 30.25 in1024.4 mb 0.00 in0.0 mm 0.00 in0.0 mm 0.01 in0.3 mm
05:27 PM 56.7°F13.7°C 50.9°F10.5°C 81% 10.0 mph SSE16.1 kmh SSE 15.0 mph24.1 kmh 30.25 in1024.4 mb 0.00 in0.0 mm 0.00 in0.0 mm 0.01 in0.3 mm
05:30 PM 56.7°F13.7°C 50.9°F10.5°C 81% 10.0 mph SSE16.1 kmh SSE 14.0 mph22.5 kmh 30.25 in1024.4 mb 0.00 in0.0 mm 0.00 in0.0 mm 0.01 in0.3 mm
05:33 PM 56.8°F13.8°C 51.1°F10.6°C 81% 9.0 mph SSE14.5 kmh SSE 14.0 mph22.5 kmh 30.24 in1024.0 mb 0.00 in0.0 mm 0.00 in0.0 mm 0.01 in0.3 mm
05:36 PM 57.0°F13.9°C 51.6°F10.9°C 82% 8.0 mph SSE12.9 kmh SSE 12.0 mph19.3 kmh 30.24 in1024.0 mb 0.00 in0.0 mm 0.00 in0.0 mm 0.01 in0.3 mm
05:39 PM 57.0°F13.9°C 51.3°F10.7°C 81% 7.0 mph SSE11.3 kmh SSE 11.0 mph17.7 kmh 30.24 in1024.0 mb 0.00 in0.0 mm 0.00 in0.0 mm 0.01 in0.3 mm
05:42 PM 57.2°F14.0°C 51.1°F10.6°C 80% 6.0 mph SSE9.7 kmh SSE 10.0 mph16.1 kmh 30.24 in1024.0 mb 0.00 in0.0 mm 0.00 in0.0 mm 0.01 in0.3 mm
05:45 PM 57.2°F14.0°C 51.1°F10.6°C 80% 6.0 mph SSE9.7 kmh SSE 10.0 mph16.1 kmh 30.24 in1024.0 mb 0.00 in0.0 mm 0.00 in0.0 mm 0.01 in0.3 mm
05:48 PM 57.2°F14.0°C 50.7°F10.4°C 79% 7.0 mph S11.3 kmh S 12.0 mph19.3 kmh 30.24 in1024.0 mb 0.00 in0.0 mm 0.00 in0.0 mm 0.01 in0.3 mm
05:51 PM 57.4°F14.1°C 50.2°F10.1°C 77% 7.0 mph S11.3 kmh S 12.0 mph19.3 kmh 30.24 in1024.0 mb 0.00 in0.0 mm 0.00 in0.0 mm 0.01 in0.3 mm
05:54 PM 57.6°F14.2°C 50.0°F10.0°C 76% 8.0 mph S12.9 kmh S 12.0 mph19.3 kmh 30.24 in1024.0 mb 0.00 in0.0 mm 0.00 in0.0 mm 0.01 in0.3 mm
05:57 PM 57.7°F14.3°C 50.0°F10.0°C 75% 8.0 mph S12.9 kmh S 12.0 mph19.3 kmh 30.24 in1024.0 mb 0.00 in0.0 mm 0.00 in0.0 mm 0.01 in0.3 mm
06:00 PM 57.9°F14.4°C 49.6°F9.8°C 74% 8.0 mph S12.9 kmh S 12.0 mph19.3 kmh 30.24 in1024.0 mb 0.00 in0.0 mm 0.00 in0.0 mm 0.01 in0.3 mm
06:03 PM 57.9°F14.4°C 49.3°F9.6°C 73% 8.0 mph S12.9 kmh S 13.0 mph20.9 kmh 30.24 in1024.0 mb 0.00 in0.0 mm 0.00 in0.0 mm 0.01 in0.3 mm
06:06 PM 57.7°F14.3°C 49.3°F9.6°C 73% 8.0 mph S12.9 kmh S 13.0 mph20.9 kmh 30.24 in1024.0 mb 0.00 in0.0 mm 0.00 in0.0 mm 0.01 in0.3 mm
06:09 PM 57.7°F14.3°C 49.1°F9.5°C 73% 8.0 mph S12.9 kmh S 13.0 mph20.9 kmh 30.24 in1024.0 mb 0.00 in0.0 mm 0.00 in0.0 mm 0.01 in0.3 mm
06:12 PM 57.7°F14.3°C 49.1°F9.5°C 73% 7.0 mph S11.3 kmh S 13.0 mph20.9 kmh 30.24 in1024.0 mb 0.00 in0.0 mm 0.00 in0.0 mm 0.01 in0.3 mm
06:15 PM 57.6°F14.2°C 48.9°F9.4°C 73% 6.0 mph S9.7 kmh S 12.0 mph19.3 kmh 30.23 in1023.7 mb 0.00 in0.0 mm 0.00 in0.0 mm 0.01 in0.3 mm
06:18 PM 57.4°F14.1°C 48.7°F9.3°C 73% 6.0 mph S9.7 kmh S 12.0 mph19.3 kmh 30.24 in1024.0 mb 0.00 in0.0 mm 0.00 in0.0 mm 0.01 in0.3 mm
06:21 PM 57.2°F14.0°C 48.6°F9.2°C 73% 6.0 mph S9.7 kmh S 12.0 mph19.3 kmh 30.23 in1023.7 mb 0.00 in0.0 mm 0.00 in0.0 mm 0.01 in0.3 mm
06:24 PM 57.2°F14.0°C 48.9°F9.4°C 74% 6.0 mph S9.7 kmh S 12.0 mph19.3 kmh 30.23 in1023.7 mb 0.00 in0.0 mm 0.00 in0.0 mm 0.01 in0.3 mm
06:27 PM 57.0°F13.9°C 48.9°F9.4°C 74% 5.0 mph S8.0 kmh S 11.0 mph17.7 kmh 30.23 in1023.7 mb 0.00 in0.0 mm 0.00 in0.0 mm 0.01 in0.3 mm
06:30 PM 56.8°F13.8°C 48.7°F9.3°C 74% 4.0 mph SSW6.4 kmh SSW 9.0 mph14.5 kmh 30.23 in1023.7 mb 0.00 in0.0 mm 0.00 in0.0 mm 0.01 in0.3 mm
06:33 PM 56.7°F13.7°C 48.6°F9.2°C 74% 4.0 mph SSW6.4 kmh SSW 9.0 mph14.5 kmh 30.23 in1023.7 mb 0.00 in0.0 mm 0.00 in0.0 mm 0.01 in0.3 mm
06:36 PM 56.5°F13.6°C 48.7°F9.3°C 75% 4.0 mph SSW6.4 kmh SSW 8.0 mph12.9 kmh 30.23 in1023.7 mb 0.00 in0.0 mm 0.00 in0.0 mm 0.01 in0.3 mm
06:39 PM 56.3°F13.5°C 48.6°F9.2°C 75% 5.0 mph S8.0 kmh S 8.0 mph12.9 kmh 30.23 in1023.7 mb 0.00 in0.0 mm 0.00 in0.0 mm 0.01 in0.3 mm
06:42 PM 56.1°F13.4°C 48.2°F9.0°C 75% 5.0 mph S8.0 kmh S 8.0 mph12.9 kmh 30.23 in1023.7 mb 0.00 in0.0 mm 0.00 in0.0 mm 0.01 in0.3 mm
06:45 PM 55.9°F13.3°C 48.4°F9.1°C 76% 5.0 mph S8.0 kmh S 8.0 mph12.9 kmh 30.23 in1023.7 mb 0.00 in0.0 mm 0.00 in0.0 mm 0.01 in0.3 mm
06:48 PM 55.6°F13.1°C 48.2°F9.0°C 76% 5.0 mph S8.0 kmh S 9.0 mph14.5 kmh 30.23 in1023.7 mb 0.00 in0.0 mm 0.00 in0.0 mm 0.01 in0.3 mm
06:51 PM 55.2°F12.9°C 48.2°F9.0°C 77% 5.0 mph S8.0 kmh S 9.0 mph14.5 kmh 30.23 in1023.7 mb 0.00 in0.0 mm 0.00 in0.0 mm 0.01 in0.3 mm
06:54 PM 55.0°F12.8°C 48.2°F9.0°C 78% 5.0 mph S8.0 kmh S 9.0 mph14.5 kmh 30.23 in1023.7 mb 0.00 in0.0 mm 0.00 in0.0 mm 0.01 in0.3 mm
06:57 PM 54.9°F12.7°C 48.0°F8.9°C 78% 5.0 mph S8.0 kmh S 8.0 mph12.9 kmh 30.23 in1023.7 mb 0.00 in0.0 mm 0.00 in0.0 mm 0.01 in0.3 mm
07:00 PM 54.7°F12.6°C 48.2°F9.0°C 79% 5.0 mph S8.0 kmh S 8.0 mph12.9 kmh 30.23 in1023.7 mb 0.00 in0.0 mm 0.00 in0.0 mm 0.01 in0.3 mm
07:03 PM 54.3°F12.4°C 48.0°F8.9°C 79% 4.0 mph S6.4 kmh S 8.0 mph12.9 kmh 30.23 in1023.7 mb 0.00 in0.0 mm 0.00 in0.0 mm 0.01 in0.3 mm
07:06 PM 54.1°F12.3°C 47.8°F8.8°C 79% 4.0 mph S6.4 kmh S 7.0 mph11.3 kmh 30.23 in1023.7 mb 0.00 in0.0 mm 0.00 in0.0 mm 0.01 in0.3 mm
07:09 PM 54.0°F12.2°C 48.0°F8.9°C 80% 4.0 mph S6.4 kmh S 7.0 mph11.3 kmh 30.23 in1023.7 mb 0.00 in0.0 mm 0.00 in0.0 mm 0.01 in0.3 mm
07:12 PM 53.8°F12.1°C 47.8°F8.8°C 80% 3.0 mph SSW4.8 kmh SSW 7.0 mph11.3 kmh 30.23 in1023.7 mb 0.00 in0.0 mm 0.00 in0.0 mm 0.01 in0.3 mm
07:15 PM 53.6°F12.0°C 47.8°F8.8°C 81% 3.0 mph SSW4.8 kmh SSW 7.0 mph11.3 kmh 30.23 in1023.7 mb 0.00 in0.0 mm 0.00 in0.0 mm 0.01 in0.3 mm
07:18 PM 53.4°F11.9°C 47.7°F8.7°C 81% 3.0 mph SW4.8 kmh SW 8.0 mph12.9 kmh 30.23 in1023.7 mb 0.00 in0.0 mm 0.00 in0.0 mm 0.01 in0.3 mm
07:21 PM 53.2°F11.8°C 47.5°F8.6°C 81% 4.0 mph SW6.4 kmh SW 9.0 mph14.5 kmh 30.23 in1023.7 mb 0.00 in0.0 mm 0.00 in0.0 mm 0.01 in0.3 mm
07:24 PM 53.1°F11.7°C 47.3°F8.5°C 81% 5.0 mph SW8.0 kmh SW 11.0 mph17.7 kmh 30.23 in1023.7 mb 0.00 in0.0 mm 0.00 in0.0 mm 0.01 in0.3 mm
07:27 PM 52.9°F11.6°C 47.3°F8.5°C 81% 5.0 mph SW8.0 kmh SW 11.0 mph17.7 kmh 30.23 in1023.7 mb 0.00 in0.0 mm 0.00 in0.0 mm 0.01 in0.3 mm
07:30 PM 52.9°F11.6°C 47.1°F8.4°C 81% 5.0 mph SW8.0 kmh SW 11.0 mph17.7 kmh 30.23 in1023.7 mb 0.00 in0.0 mm 0.00 in0.0 mm 0.01 in0.3 mm
07:33 PM 52.7°F11.5°C 47.1°F8.4°C 81% 4.0 mph SW6.4 kmh SW 8.0 mph12.9 kmh 30.23 in1023.7 mb 0.00 in0.0 mm 0.00 in0.0 mm 0.01 in0.3 mm
07:36 PM 52.5°F11.4°C 46.8°F8.2°C 81% 4.0 mph SW6.4 kmh SW 9.0 mph14.5 kmh 30.23 in1023.7 mb 0.00 in0.0 mm 0.00 in0.0 mm 0.01 in0.3 mm
07:39 PM 52.3°F11.3°C 46.8°F8.2°C 81% 5.0 mph WSW8.0 kmh WSW 11.0 mph17.7 kmh 30.23 in1023.7 mb 0.00 in0.0 mm 0.00 in0.0 mm 0.01 in0.3 mm
07:42 PM 52.3°F11.3°C 46.6°F8.1°C 81% 5.0 mph SW8.0 kmh SW 11.0 mph17.7 kmh 30.23 in1023.7 mb 0.00 in0.0 mm 0.00 in0.0 mm 0.01 in0.3 mm
07:45 PM 52.2°F11.2°C 46.4°F8.0°C 81% 5.0 mph SW8.0 kmh SW 11.0 mph17.7 kmh 30.23 in1023.7 mb 0.00 in0.0 mm 0.00 in0.0 mm 0.01 in0.3 mm
07:48 PM 52.2°F11.2°C 46.4°F8.0°C 81% 5.0 mph SW8.0 kmh SW 10.0 mph16.1 kmh 30.23 in1023.7 mb 0.00 in0.0 mm 0.00 in0.0 mm 0.01 in0.3 mm
07:51 PM 52.0°F11.1°C 46.8°F8.2°C 82% 4.0 mph SW6.4 kmh SW 10.0 mph16.1 kmh 30.23 in1023.7 mb 0.00 in0.0 mm 0.00 in0.0 mm 0.01 in0.3 mm
07:54 PM 52.0°F11.1°C 46.6°F8.1°C 82% 4.0 mph SW6.4 kmh SW 10.0 mph16.1 kmh 30.24 in1024.0 mb 0.00 in0.0 mm 0.00 in0.0 mm 0.01 in0.3 mm
07:57 PM 51.8°F11.0°C 46.4°F8.0°C 82% 4.0 mph SW6.4 kmh SW 7.0 mph11.3 kmh 30.24 in1024.0 mb 0.00 in0.0 mm 0.00 in0.0 mm 0.01 in0.3 mm
08:00 PM 51.6°F10.9°C 46.4°F8.0°C 82% 4.0 mph SW6.4 kmh SW 7.0 mph11.3 kmh 30.24 in1024.0 mb 0.00 in0.0 mm 0.00 in0.0 mm 0.01 in0.3 mm
08:03 PM 51.6°F10.9°C 46.2°F7.9°C 82% 4.0 mph SW6.4 kmh SW 7.0 mph11.3 kmh 30.24 in1024.0 mb 0.00 in0.0 mm 0.00 in0.0 mm 0.01 in0.3 mm
08:06 PM 51.4°F10.8°C 46.2°F7.9°C 82% 4.0 mph SW6.4 kmh SW 7.0 mph11.3 kmh 30.24 in1024.0 mb 0.00 in0.0 mm 0.00 in0.0 mm 0.01 in0.3 mm
08:09 PM 51.3°F10.7°C 46.4°F8.0°C 83% 4.0 mph SW6.4 kmh SW 6.0 mph9.7 kmh 30.24 in1024.0 mb 0.00 in0.0 mm 0.00 in0.0 mm 0.01 in0.3 mm
08:12 PM 51.3°F10.7°C 46.2°F7.9°C 83% 4.0 mph WSW6.4 kmh WSW 6.0 mph9.7 kmh 30.24 in1024.0 mb 0.00 in0.0 mm 0.00 in0.0 mm 0.01 in0.3 mm
08:15 PM 51.1°F10.6°C 46.0°F7.8°C 83% 4.0 mph WSW6.4 kmh WSW 6.0 mph9.7 kmh 30.24 in1024.0 mb 0.00 in0.0 mm 0.00 in0.0 mm 0.01 in0.3 mm
08:18 PM 50.9°F10.5°C 45.9°F7.7°C 83% 4.0 mph SW6.4 kmh SW 8.0 mph12.9 kmh 30.24 in1024.0 mb 0.00 in0.0 mm 0.00 in0.0 mm 0.01 in0.3 mm
08:21 PM 50.7°F10.4°C 45.7°F7.6°C 83% 4.0 mph SW6.4 kmh SW 8.0 mph12.9 kmh 30.24 in1024.0 mb 0.00 in0.0 mm 0.00 in0.0 mm 0.01 in0.3 mm
08:24 PM 50.7°F10.4°C 46.0°F7.8°C 84% 4.0 mph SW6.4 kmh SW 8.0 mph12.9 kmh 30.24 in1024.0 mb 0.00 in0.0 mm 0.00 in0.0 mm 0.01 in0.3 mm
08:27 PM 50.5°F10.3°C 45.9°F7.7°C 84% 4.0 mph SW6.4 kmh SW 7.0 mph11.3 kmh 30.24 in1024.0 mb 0.00 in0.0 mm 0.00 in0.0 mm 0.01 in0.3 mm
08:30 PM 50.5°F10.3°C 45.9°F7.7°C 84% 4.0 mph SW6.4 kmh SW 7.0 mph11.3 kmh 30.24 in1024.0 mb 0.00 in0.0 mm 0.00 in0.0 mm 0.01 in0.3 mm
08:33 PM 50.4°F10.2°C 45.7°F7.6°C 84% 3.0 mph SW4.8 kmh SW 7.0 mph11.3 kmh 30.24 in1024.0 mb 0.00 in0.0 mm 0.00 in0.0 mm 0.01 in0.3 mm
08:36 PM 50.2°F10.1°C 45.9°F7.7°C 85% 3.0 mph SW4.8 kmh SW 6.0 mph9.7 kmh 30.24 in1024.0 mb 0.00 in0.0 mm 0.00 in0.0 mm 0.01 in0.3 mm
08:39 PM 50.2°F10.1°C 45.9°F7.7°C 85% 3.0 mph SW4.8 kmh SW 6.0 mph9.7 kmh 30.24 in1024.0 mb 0.00 in0.0 mm 0.00 in0.0 mm 0.01 in0.3 mm
08:42 PM 50.2°F10.1°C 45.7°F7.6°C 85% 3.0 mph SW4.8 kmh SW 6.0 mph9.7 kmh 30.24 in1024.0 mb 0.00 in0.0 mm 0.00 in0.0 mm 0.01 in0.3 mm
08:45 PM 50.0°F10.0°C 45.7°F7.6°C 85% 3.0 mph SW4.8 kmh SW 7.0 mph11.3 kmh 30.24 in1024.0 mb 0.00 in0.0 mm 0.00 in0.0 mm 0.01 in0.3 mm
08:48 PM 49.8°F9.9°C 45.9°F7.7°C 86% 4.0 mph SW6.4 kmh SW 8.0 mph12.9 kmh 30.24 in1024.0 mb 0.00 in0.0 mm 0.00 in0.0 mm 0.01 in0.3 mm
08:51 PM 49.8°F9.9°C 46.8°F8.2°C 89% 4.0 mph WSW6.4 kmh WSW 8.0 mph12.9 kmh 30.24 in1024.0 mb 0.00 in0.0 mm 0.00 in0.0 mm 0.01 in0.3 mm
08:54 PM 49.8°F9.9°C 45.9°F7.7°C 86% 4.0 mph WSW6.4 kmh WSW 8.0 mph12.9 kmh 30.24 in1024.0 mb 0.00 in0.0 mm 0.00 in0.0 mm 0.01 in0.3 mm
08:57 PM 49.8°F9.9°C 45.9°F7.7°C 86% 4.0 mph WSW6.4 kmh WSW 8.0 mph12.9 kmh 30.24 in1024.0 mb 0.00 in0.0 mm 0.00 in0.0 mm 0.01 in0.3 mm
09:00 PM 49.8°F9.9°C 45.9°F7.7°C 86% 5.0 mph WSW8.0 kmh WSW 8.0 mph12.9 kmh 30.24 in1024.0 mb 0.00 in0.0 mm 0.00 in0.0 mm 0.01 in0.3 mm
09:03 PM 49.8°F9.9°C 45.9°F7.7°C 86% 4.0 mph WSW6.4 kmh WSW 8.0 mph12.9 kmh 30.24 in1024.0 mb 0.00 in0.0 mm 0.00 in0.0 mm 0.01 in0.3 mm
09:06 PM 50.0°F10.0°C 46.0°F7.8°C 86% 4.0 mph WSW6.4 kmh WSW 8.0 mph12.9 kmh 30.24 in1024.0 mb 0.00 in0.0 mm 0.00 in0.0 mm 0.01 in0.3 mm
09:09 PM 50.0°F10.0°C 46.0°F7.8°C 86% 4.0 mph WSW6.4 kmh WSW 9.0 mph14.5 kmh 30.23 in1023.7 mb 0.00 in0.0 mm 0.00 in0.0 mm 0.01 in0.3 mm
09:12 PM 50.0°F10.0°C 46.0°F7.8°C 86% 5.0 mph WSW8.0 kmh WSW 10.0 mph16.1 kmh 30.23 in1023.7 mb 0.00 in0.0 mm 0.00 in0.0 mm 0.01 in0.3 mm
09:15 PM 50.0°F10.0°C 46.0°F7.8°C 86% 5.0 mph WSW8.0 kmh WSW 10.0 mph16.1 kmh 30.23 in1023.7 mb 0.00 in0.0 mm 0.00 in0.0 mm 0.01 in0.3 mm
09:18 PM 50.0°F10.0°C 46.0°F7.8°C 86% 5.0 mph WSW8.0 kmh WSW 10.0 mph16.1 kmh 30.23 in1023.7 mb 0.00 in0.0 mm 0.00 in0.0 mm 0.01 in0.3 mm
09:21 PM 50.0°F10.0°C 46.0°F7.8°C 86% 6.0 mph WSW9.7 kmh WSW 10.0 mph16.1 kmh 30.23 in1023.7 mb 0.00 in0.0 mm 0.00 in0.0 mm 0.01 in0.3 mm
09:24 PM 50.0°F10.0°C 46.0°F7.8°C 86% 6.0 mph WSW9.7 kmh WSW 10.0 mph16.1 kmh 30.23 in1023.7 mb 0.00 in0.0 mm 0.00 in0.0 mm 0.01 in0.3 mm
09:27 PM 50.0°F10.0°C 46.2°F7.9°C 87% 5.0 mph WSW8.0 kmh WSW 10.0 mph16.1 kmh 30.23 in1023.7 mb 0.00 in0.0 mm 0.00 in0.0 mm 0.01 in0.3 mm
09:30 PM 50.0°F10.0°C 46.2°F7.9°C 87% 5.0 mph WSW8.0 kmh WSW 10.0 mph16.1 kmh 30.23 in1023.7 mb 0.00 in0.0 mm 0.00 in0.0 mm 0.01 in0.3 mm
09:33 PM 50.0°F10.0°C 46.0°F7.8°C 86% 4.0 mph W6.4 kmh W 10.0 mph16.1 kmh 30.23 in1023.7 mb 0.00 in0.0 mm 0.00 in0.0 mm 0.01 in0.3 mm
09:36 PM 49.8°F9.9°C 45.9°F7.7°C 86% 3.0 mph W4.8 kmh W 10.0 mph16.1 kmh 30.23 in1023.7 mb 0.00 in0.0 mm 0.00 in0.0 mm 0.01 in0.3 mm
09:39 PM 49.8°F9.9°C 46.0°F7.8°C 87% 3.0 mph W4.8 kmh W 9.0 mph14.5 kmh 30.23 in1023.7 mb 0.00 in0.0 mm 0.00 in0.0 mm 0.01 in0.3 mm
09:42 PM 49.6°F9.8°C 46.0°F7.8°C 87% 3.0 mph W4.8 kmh W 9.0 mph14.5 kmh 30.23 in1023.7 mb 0.00 in0.0 mm 0.00 in0.0 mm 0.01 in0.3 mm
09:45 PM 49.6°F9.8°C 45.9°F7.7°C 87% 3.0 mph WNW4.8 kmh WNW 8.0 mph12.9 kmh 30.23 in1023.7 mb 0.00 in0.0 mm 0.00 in0.0 mm 0.01 in0.3 mm
09:48 PM 49.5°F9.7°C 45.9°F7.7°C 87% 3.0 mph WNW4.8 kmh WNW 8.0 mph12.9 kmh 30.23 in1023.7 mb 0.00 in0.0 mm 0.00 in0.0 mm 0.01 in0.3 mm
09:51 PM 49.5°F9.7°C 45.7°F7.6°C 87% 3.0 mph WNW4.8 kmh WNW 7.0 mph11.3 kmh 30.23 in1023.7 mb 0.00 in0.0 mm 0.00 in0.0 mm 0.01 in0.3 mm
09:54 PM 49.3°F9.6°C 45.7°F7.6°C 87% 3.0 mph WNW4.8 kmh WNW 6.0 mph9.7 kmh 30.23 in1023.7 mb 0.00 in0.0 mm 0.00 in0.0 mm 0.01 in0.3 mm
09:57 PM 49.1°F9.5°C 45.3°F7.4°C 87% 2.0 mph NW3.2 kmh NW 5.0 mph8.0 kmh 30.23 in1023.7 mb 0.00 in0.0 mm 0.00 in0.0 mm 0.01 in0.3 mm
10:00 PM 48.9°F9.4°C 45.3°F7.4°C 87% 3.0 mph NW4.8 kmh NW 5.0 mph8.0 kmh 30.23 in1023.7 mb 0.00 in0.0 mm 0.00 in0.0 mm 0.01 in0.3 mm
10:03 PM 48.9°F9.4°C 45.1°F7.3°C 87% 3.0 mph NW4.8 kmh NW 5.0 mph8.0 kmh 30.23 in1023.7 mb 0.00 in0.0 mm 0.00 in0.0 mm 0.01 in0.3 mm
10:06 PM 48.7°F9.3°C 45.1°F7.3°C 87% 4.0 mph NW6.4 kmh NW 8.0 mph12.9 kmh 30.23 in1023.7 mb 0.00 in0.0 mm 0.00 in0.0 mm 0.01 in0.3 mm
10:09 PM 48.7°F9.3°C 45.3°F7.4°C 88% 4.0 mph NW6.4 kmh NW 9.0 mph14.5 kmh 30.22 in1023.4 mb 0.00 in0.0 mm 0.00 in0.0 mm 0.01 in0.3 mm
10:12 PM 48.7°F9.3°C 45.3°F7.4°C 88% 5.0 mph NNW8.0 kmh NNW 10.0 mph16.1 kmh 30.23 in1023.7 mb 0.00 in0.0 mm 0.00 in0.0 mm 0.01 in0.3 mm
10:15 PM 48.9°F9.4°C 45.5°F7.5°C 88% 7.0 mph NNW11.3 kmh NNW 11.0 mph17.7 kmh 30.22 in1023.4 mb 0.00 in0.0 mm 0.00 in0.0 mm 0.01 in0.3 mm
10:18 PM 48.9°F9.4°C 45.9°F7.7°C 89% 8.0 mph NNW12.9 kmh NNW 11.0 mph17.7 kmh 30.22 in1023.4 mb 0.00 in0.0 mm 0.00 in0.0 mm 0.01 in0.3 mm
10:21 PM 48.9°F9.4°C 45.9°F7.7°C 89% 8.0 mph NNW12.9 kmh NNW 11.0 mph17.7 kmh 30.22 in1023.4 mb 0.00 in0.0 mm 0.00 in0.0 mm 0.01 in0.3 mm
10:24 PM 48.9°F9.4°C 45.9°F7.7°C 89% 9.0 mph NNW14.5 kmh NNW 11.0 mph17.7 kmh 30.22 in1023.4 mb 0.00 in0.0 mm 0.00 in0.0 mm 0.01 in0.3 mm
10:27 PM 48.9°F9.4°C 45.9°F7.7°C 89% 9.0 mph NNW14.5 kmh NNW 12.0 mph19.3 kmh 30.22 in1023.4 mb 0.00 in0.0 mm 0.00 in0.0 mm 0.01 in0.3 mm
10:30 PM 48.7°F9.3°C 45.7°F7.6°C 89% 9.0 mph NNW14.5 kmh NNW 12.0 mph19.3 kmh 30.22 in1023.4 mb 0.00 in0.0 mm 0.00 in0.0 mm 0.01 in0.3 mm
10:33 PM 48.7°F9.3°C 45.7°F7.6°C 89% 9.0 mph NNW14.5 kmh NNW 12.0 mph19.3 kmh 30.22 in1023.4 mb 0.00 in0.0 mm 0.00 in0.0 mm 0.01 in0.3 mm
10:36 PM 48.9°F9.4°C 45.9°F7.7°C 89% 9.0 mph NNW14.5 kmh NNW 12.0 mph19.3 kmh 30.22 in1023.4 mb 0.00 in0.0 mm 0.00 in0.0 mm 0.01 in0.3 mm
10:39 PM 48.9°F9.4°C 45.9°F7.7°C 89% 9.0 mph NNW14.5 kmh NNW 11.0 mph17.7 kmh 30.22 in1023.4 mb 0.00 in0.0 mm 0.00 in0.0 mm 0.01 in0.3 mm
10:42 PM 48.9°F9.4°C 45.9°F7.7°C 89% 9.0 mph NNW14.5 kmh NNW 12.0 mph19.3 kmh 30.22 in1023.4 mb 0.00 in0.0 mm 0.00 in0.0 mm 0.01 in0.3 mm
10:45 PM 48.7°F9.3°C 45.7°F7.6°C 89% 9.0 mph NNW14.5 kmh NNW 12.0 mph19.3 kmh 30.22 in1023.4 mb 0.00 in0.0 mm 0.00 in0.0 mm 0.01 in0.3 mm
10:48 PM 48.7°F9.3°C 45.7°F7.6°C 89% 9.0 mph NNW14.5 kmh NNW 12.0 mph19.3 kmh 30.22 in1023.4 mb 0.00 in0.0 mm 0.00 in0.0 mm 0.01 in0.3 mm
10:51 PM 48.7°F9.3°C 45.7°F7.6°C 89% 9.0 mph NNW14.5 kmh NNW 12.0 mph19.3 kmh 30.22 in1023.4 mb 0.00 in0.0 mm 0.00 in0.0 mm 0.01 in0.3 mm
10:54 PM 48.6°F9.2°C 45.5°F7.5°C 89% 9.0 mph NNW14.5 kmh NNW 11.0 mph17.7 kmh 30.22 in1023.4 mb 0.00 in0.0 mm 0.00 in0.0 mm 0.01 in0.3 mm
10:57 PM 48.6°F9.2°C 45.3°F7.4°C 89% 9.0 mph NNW14.5 kmh NNW 11.0 mph17.7 kmh 30.22 in1023.4 mb 0.00 in0.0 mm 0.00 in0.0 mm 0.01 in0.3 mm
11:00 PM 48.4°F9.1°C 45.3°F7.4°C 89% 9.0 mph NNW14.5 kmh NNW 12.0 mph19.3 kmh 30.21 in1023.0 mb 0.00 in0.0 mm 0.00 in0.0 mm 0.01 in0.3 mm
11:03 PM 48.4°F9.1°C 45.3°F7.4°C 89% 9.0 mph NNW14.5 kmh NNW 12.0 mph19.3 kmh 30.22 in1023.4 mb 0.00 in0.0 mm 0.00 in0.0 mm 0.01 in0.3 mm
11:06 PM 48.4°F9.1°C 45.3°F7.4°C 89% 9.0 mph NNW14.5 kmh NNW 12.0 mph19.3 kmh 30.22 in1023.4 mb 0.00 in0.0 mm 0.00 in0.0 mm 0.01 in0.3 mm
11:09 PM 48.4°F9.1°C 45.3°F7.4°C 89% 10.0 mph NNW16.1 kmh NNW 12.0 mph19.3 kmh 30.22 in1023.4 mb 0.00 in0.0 mm 0.00 in0.0 mm 0.01 in0.3 mm
11:12 PM 48.4°F9.1°C 45.1°F7.3°C 89% 10.0 mph NNW16.1 kmh NNW 12.0 mph19.3 kmh 30.22 in1023.4 mb 0.00 in0.0 mm 0.00 in0.0 mm 0.01 in0.3 mm
11:15 PM 48.4°F9.1°C 45.1°F7.3°C 89% 10.0 mph NNW16.1 kmh NNW 12.0 mph19.3 kmh 30.21 in1023.0 mb 0.00 in0.0 mm 0.00 in0.0 mm 0.01 in0.3 mm
11:18 PM 48.4°F9.1°C 45.1°F7.3°C 89% 10.0 mph NNW16.1 kmh NNW 12.0 mph19.3 kmh 30.21 in1023.0 mb 0.00 in0.0 mm 0.00 in0.0 mm 0.01 in0.3 mm
11:21 PM 48.4°F9.1°C 45.1°F7.3°C 89% 10.0 mph NNW16.1 kmh NNW 12.0 mph19.3 kmh 30.21 in1023.0 mb 0.00 in0.0 mm 0.00 in0.0 mm 0.01 in0.3 mm
11:24 PM 48.4°F9.1°C 45.1°F7.3°C 89% 10.0 mph NNW16.1 kmh NNW 12.0 mph19.3 kmh 30.21 in1023.0 mb 0.00 in0.0 mm 0.00 in0.0 mm 0.01 in0.3 mm
11:27 PM 48.4°F9.1°C 45.1°F7.3°C 89% 9.0 mph NNW14.5 kmh NNW 12.0 mph19.3 kmh 30.21 in1023.0 mb 0.00 in0.0 mm 0.00 in0.0 mm 0.01 in0.3 mm
11:30 PM 48.2°F9.0°C 44.8°F7.1°C 88% 9.0 mph NNW14.5 kmh NNW 12.0 mph19.3 kmh 30.21 in1023.0 mb 0.00 in0.0 mm 0.00 in0.0 mm 0.01 in0.3 mm
11:33 PM 48.0°F8.9°C 45.0°F7.2°C 89% 9.0 mph NNW14.5 kmh NNW 12.0 mph19.3 kmh 30.21 in1023.0 mb 0.00 in0.0 mm 0.00 in0.0 mm 0.01 in0.3 mm
11:36 PM 48.0°F8.9°C 45.0°F7.2°C 89% 9.0 mph NNW14.5 kmh NNW 11.0 mph17.7 kmh 30.21 in1023.0 mb 0.00 in0.0 mm 0.00 in0.0 mm 0.01 in0.3 mm
11:39 PM 48.0°F8.9°C 45.0°F7.2°C 89% 9.0 mph NNW14.5 kmh NNW 12.0 mph19.3 kmh 30.21 in1023.0 mb 0.00 in0.0 mm 0.00 in0.0 mm 0.01 in0.3 mm
11:42 PM 48.0°F8.9°C 45.0°F7.2°C 89% 9.0 mph NNW14.5 kmh NNW 12.0 mph19.3 kmh 30.21 in1023.0 mb 0.00 in0.0 mm 0.00 in0.0 mm 0.01 in0.3 mm
11:45 PM 47.8°F8.8°C 44.8°F7.1°C 89% 9.0 mph NNW14.5 kmh NNW 12.0 mph19.3 kmh 30.21 in1023.0 mb 0.00 in0.0 mm 0.00 in0.0 mm 0.01 in0.3 mm
11:48 PM 47.7°F8.7°C 44.6°F7.0°C 89% 9.0 mph NNW14.5 kmh NNW 11.0 mph17.7 kmh 30.21 in1023.0 mb 0.00 in0.0 mm 0.00 in0.0 mm 0.01 in0.3 mm
11:51 PM 47.7°F8.7°C 44.6°F7.0°C 89% 9.0 mph NNW14.5 kmh NNW 11.0 mph17.7 kmh 30.21 in1023.0 mb 0.00 in0.0 mm 0.00 in0.0 mm 0.01 in0.3 mm
11:54 PM 47.7°F8.7°C 44.8°F7.1°C 90% 9.0 mph NNW14.5 kmh NNW 11.0 mph17.7 kmh 30.21 in1023.0 mb 0.00 in0.0 mm 0.00 in0.0 mm 0.01 in0.3 mm
11:57 PM 47.7°F8.7°C 44.8°F7.1°C 90% 9.0 mph NNW14.5 kmh NNW 11.0 mph17.7 kmh 30.20 in1022.7 mb 0.00 in0.0 mm 0.00 in0.0 mm 0.01 in0.3 mm